
Distance (Route):
Temperature : 0°C
Humidity : 0%
Pressure : 0hPa| Receiver | Date | Latitude | Longitude | Direction | Speed | Altitude | Climb | Temperature | Humidity | Pressure | Voltage | Killtimer | Uptime | BKT | XDATA |
|---|---|---|---|---|---|---|---|---|---|---|---|---|---|---|---|
| RDZ2B | 2026-09-05 13:31:42 | 41.73945 | 8.90511 | 131° | 35km/h | 6016m | -7.7m/s | 0°C | 0% | 0hPa | 0V | 00:00:00 | 00:00:00 | 00:00:00 | |
| RDZ2B | 2026-09-05 13:31:18 | 41.74056 | 8.90300 | 117° | 29km/h | 6253m | -8.8m/s | 0°C | 0% | 0hPa | 0V | 00:00:00 | 00:00:00 | 00:00:00 | |
| RDZ2B | 2026-09-05 13:30:02 | 41.74336 | 8.89656 | 122° | 20km/h | 7042m | -9.4m/s | 0°C | 0% | 0hPa | 0V | 00:00:00 | 00:00:00 | 00:00:00 | |
| RDZBGO | 2026-09-05 13:28:09 | 41.74790 | 8.89229 | 179° | 13km/h | 8298m | -11.2m/s | 0°C | 0% | 0hPa | 0V | 00:00:00 | 00:00:00 | 00:00:00 | |
| RDZBGO | 2026-09-05 13:27:48 | 41.74863 | 8.89184 | 135° | 18km/h | 8582m | -10.0m/s | 0°C | 0% | 0hPa | 0V | 00:00:00 | 00:00:00 | 00:00:00 | |
| RDZ2B | 2026-09-05 13:27:27 | 41.74940 | 8.89116 | 148° | 18km/h | 8836m | -11.0m/s | 0°C | 0% | 0hPa | 0V | 00:00:00 | 00:00:00 | 00:00:00 | |
| RDZBGO | 2026-09-05 13:27:06 | 41.75016 | 8.89078 | 159° | 20km/h | 9063m | -10.5m/s | 0°C | 0% | 0hPa | 0V | 00:00:00 | 00:00:00 | 00:00:00 | |
| RDZBGO | 2026-09-05 13:26:45 | 41.75144 | 8.89071 | 191° | 35km/h | 9290m | -10.7m/s | 0°C | 0% | 0hPa | 0V | 00:00:00 | 00:00:00 | 00:00:00 | |
| RDZBGO | 2026-09-05 13:26:24 | 41.75353 | 8.89171 | 204° | 49km/h | 9524m | -11.0m/s | 0°C | 0% | 0hPa | 0V | 00:00:00 | 00:00:00 | 00:00:00 | |
| RDZ2B | 2026-09-05 13:26:22 | 41.75376 | 8.89183 | 203° | 47km/h | 9547m | -10.4m/s | 0°C | 0% | 0hPa | 0V | 00:00:00 | 00:00:00 | 00:00:00 | |
| RDZBGO | 2026-09-05 13:26:04 | 41.75574 | 8.89287 | 202° | 46km/h | 9753m | -11.3m/s | 0°C | 0% | 0hPa | 0V | 00:00:00 | 00:00:00 | 00:00:00 | |
| RDZ2B | 2026-09-05 13:26:00 | 41.75617 | 8.89311 | 204° | 46km/h | 9797m | -10.5m/s | 0°C | 0% | 0hPa | 0V | 00:00:00 | 00:00:00 | 00:00:00 | |
| RDZBGO | 2026-09-05 13:25:44 | 41.75782 | 8.89400 | 202° | 44km/h | 9978m | -10.7m/s | 0°C | 0% | 0hPa | 0V | 00:00:00 | 00:00:00 | 00:00:00 | |
| RDZ2B | 2026-09-05 13:25:40 | 41.75822 | 8.89423 | 203° | 42km/h | 10024m | -10.2m/s | 0°C | 0% | 0hPa | 0V | 00:00:00 | 00:00:00 | 00:00:00 | |
| RDZBGO | 2026-09-05 13:25:23 | 41.76000 | 8.89516 | 203° | 44km/h | 10220m | -10.4m/s | 0°C | 0% | 0hPa | 0V | 00:00:00 | 00:00:00 | 00:00:00 | |
| RDZ2B | 2026-09-05 13:25:19 | 41.76041 | 8.89539 | 207° | 44km/h | 10267m | -10.3m/s | 0°C | 0% | 0hPa | 0V | 00:00:00 | 00:00:00 | 00:00:00 | |
| RDZBGO | 2026-09-05 13:25:02 | 41.76217 | 8.89649 | 206° | 46km/h | 10465m | -10.1m/s | 0°C | 0% | 0hPa | 0V | 00:00:00 | 00:00:00 | 00:00:00 | |
| RDZ2B | 2026-09-05 13:24:54 | 41.76306 | 8.89698 | 202° | 47km/h | 10558m | -10.9m/s | 0°C | 0% | 0hPa | 0V | 00:00:00 | 00:00:00 | 00:00:00 | |
| RDZBGO | 2026-09-05 13:24:41 | 41.76458 | 8.89761 | 196° | 47km/h | 10710m | -11.0m/s | 0°C | 0% | 0hPa | 0V | 00:00:00 | 00:00:00 | 00:00:00 | |
| RDZ2B | 2026-09-05 13:24:32 | 41.76569 | 8.89803 | 195° | 55km/h | 10815m | -12.1m/s | 0°C | 0% | 0hPa | 0V | 00:00:00 | 00:00:00 | 00:00:00 | |
| RDZBGO | 2026-09-05 13:24:20 | 41.76729 | 8.89858 | 195° | 57km/h | 10959m | -11.3m/s | 0°C | 0% | 0hPa | 0V | 00:00:00 | 00:00:00 | 00:00:00 | |
| RDZ2B | 2026-09-05 13:24:09 | 41.76882 | 8.89907 | 194° | 58km/h | 11094m | -10.3m/s | 0°C | 0% | 0hPa | 0V | 00:00:00 | 00:00:00 | 00:00:00 | |
| RDZBGO | 2026-09-05 13:24:00 | 41.77008 | 8.89947 | 194° | 58km/h | 11202m | -11.1m/s | 0°C | 0% | 0hPa | 0V | 00:00:00 | 00:00:00 | 00:00:00 | |
| RDZ2B | 2026-09-05 13:23:49 | 41.77149 | 8.89991 | 194° | 49km/h | 11342m | -11.2m/s | 0°C | 0% | 0hPa | 0V | 00:00:00 | 00:00:00 | 00:00:00 | |
| RDZBGO | 2026-09-05 13:23:39 | 41.77271 | 8.90030 | 200° | 46km/h | 11466m | -12.0m/s | 0°C | 0% | 0hPa | 0V | 00:00:00 | 00:00:00 | 00:00:00 | |
| RDZBGO | 2026-09-05 13:22:57 | 41.77711 | 8.90217 | 193° | 44km/h | 12003m | -12.5m/s | 0°C | 0% | 0hPa | 0V | 00:00:00 | 00:00:00 | 00:00:00 | |
| RDZBGO | 2026-09-05 13:22:36 | 41.77943 | 8.90307 | 196° | 51km/h | 12276m | -12.7m/s | 0°C | 0% | 0hPa | 0V | 00:00:00 | 00:00:00 | 00:00:00 | |
| RDZBGO | 2026-09-05 13:22:16 | 41.78193 | 8.90414 | 203° | 51km/h | 12547m | -12.6m/s | 0°C | 0% | 0hPa | 0V | 00:00:00 | 00:00:00 | 00:00:00 | |
| RDZBGO | 2026-09-05 13:21:56 | 41.78418 | 8.90547 | 209° | 46km/h | 12818m | -12.7m/s | 0°C | 0% | 0hPa | 0V | 00:00:00 | 00:00:00 | 00:00:00 | |
| RDZ2B | 2026-09-05 13:21:50 | 41.78477 | 8.90594 | 214° | 44km/h | 12902m | -13.0m/s | 0°C | 0% | 0hPa | 0V | 00:00:00 | 00:00:00 | 00:00:00 | |
| RDZBGO | 2026-09-05 13:21:36 | 41.78592 | 8.90701 | 219° | 37km/h | 13100m | -12.4m/s | 0°C | 0% | 0hPa | 0V | 00:00:00 | 00:00:00 | 00:00:00 | |
| RDZBGO | 2026-09-05 13:21:16 | 41.78704 | 8.90788 | 209° | 16km/h | 13379m | -13.4m/s | 0°C | 0% | 0hPa | 0V | 00:00:00 | 00:00:00 | 00:00:00 | |
| RDZ2B | 2026-09-05 13:21:10 | 41.78725 | 8.90800 | 218° | 9km/h | 13463m | -13.5m/s | 0°C | 0% | 0hPa | 0V | 00:00:00 | 00:00:00 | 00:00:00 | |
| RDZBGO | 2026-09-05 13:20:55 | 41.78763 | 8.90775 | 115° | 22km/h | 13676m | -13.6m/s | 0°C | 0% | 0hPa | 0V | 00:00:00 | 00:00:00 | 00:00:00 | |
| RDZ2B | 2026-09-05 13:20:43 | 41.78790 | 8.90679 | 107° | 24km/h | 13849m | -12.8m/s | 0°C | 0% | 0hPa | 0V | 00:00:00 | 00:00:00 | 00:00:00 | |
| RDZBGO | 2026-09-05 13:20:35 | 41.78802 | 8.90623 | 99° | 18km/h | 13964m | -12.6m/s | 0°C | 0% | 0hPa | 0V | 00:00:00 | 00:00:00 | 00:00:00 | |
| RDZ2B | 2026-09-05 13:20:22 | 41.78803 | 8.90550 | 61° | 15km/h | 14157m | -14.3m/s | 0°C | 0% | 0hPa | 0V | 00:00:00 | 00:00:00 | 00:00:00 | |
| RDZBGO | 2026-09-05 13:20:09 | 41.78794 | 8.90473 | 97° | 24km/h | 14353m | -13.9m/s | 0°C | 0% | 0hPa | 0V | 00:00:00 | 00:00:00 | 00:00:00 | |
| RDZBGO | 2026-09-05 13:19:49 | 41.78862 | 8.90292 | 120° | 24km/h | 14657m | -15.1m/s | 0°C | 0% | 0hPa | 0V | 00:00:00 | 00:00:00 | 00:00:00 | |
| RDZ2B | 2026-09-05 13:19:28 | 41.78932 | 8.90125 | 113° | 33km/h | 14991m | -14.6m/s | 0°C | 0% | 0hPa | 0V | 00:00:00 | 00:00:00 | 00:00:00 | |
| RDZBGO | 2026-09-05 13:19:27 | 41.78935 | 8.90115 | 112° | 33km/h | 15008m | -14.8m/s | 0°C | 0% | 0hPa | 0V | 00:00:00 | 00:00:00 | 00:00:00 | |
| RDZ2B | 2026-09-05 13:19:07 | 41.79000 | 8.89911 | 109° | 27km/h | 15324m | -15.6m/s | 0°C | 0% | 0hPa | 0V | 00:00:00 | 00:00:00 | 00:00:00 | |
| RDZ2B | 2026-09-05 13:18:00 | 41.79158 | 8.89359 | 114° | 16km/h | 16464m | -16.7m/s | 0°C | 0% | 0hPa | 0V | 00:00:00 | 00:00:00 | 00:00:00 | |
| RDZBGO | 2026-09-05 13:17:26 | 41.79250 | 8.89224 | 114° | 22km/h | 17086m | -17.3m/s | 0°C | 0% | 0hPa | 0V | 00:00:00 | 00:00:00 | 00:00:00 | |
| RDZ2B | 2026-09-05 13:17:23 | 41.79256 | 8.89203 | 113° | 26km/h | 17142m | -18.2m/s | 0°C | 0% | 0hPa | 0V | 00:00:00 | 00:00:00 | 00:00:00 | |
| RDZBGO | 2026-09-05 13:17:05 | 41.79295 | 8.89063 | 95° | 20km/h | 17485m | -18.7m/s | 0°C | 0% | 0hPa | 0V | 00:00:00 | 00:00:00 | 00:00:00 | |
| RDZBGO | 2026-09-05 13:16:42 | 41.79314 | 8.88809 | 123° | 35km/h | 17938m | -19.0m/s | 0°C | 0% | 0hPa | 0V | 00:00:00 | 00:00:00 | 00:00:00 | |
| RDZBGO | 2026-09-05 13:16:21 | 41.79339 | 8.88738 | 39° | 5km/h | 18368m | -19.6m/s | 0°C | 0% | 0hPa | 0V | 00:00:00 | 00:00:00 | 00:00:00 | |
| RDZ2B | 2026-09-05 13:15:00 | 41.79306 | 8.88538 | 324° | 18km/h | 20144m | -23.1m/s | 0°C | 0% | 0hPa | 0V | 00:00:00 | 00:00:00 | 00:00:00 | |
| RDZ2B | 2026-09-05 13:14:38 | 41.79260 | 8.88545 | 1° | 5km/h | 20675m | -23.2m/s | 0°C | 0% | 0hPa | 0V | 00:00:00 | 00:00:00 | 00:00:00 | |
| RDZ2B | 2026-09-05 13:14:17 | 41.79242 | 8.88589 | 1° | 7km/h | 21202m | -24.9m/s | 0°C | 0% | 0hPa | 0V | 00:00:00 | 00:00:00 | 00:00:00 | |
| AUTORXJP | 2026-09-05 13:13:53 | 41.79260 | 8.88600 | 217° | 15km/h | 22594m | -29.1m/s | -53.8°C | 0.0% | 36.0hPa | 0V | 00:00:00 | 00:00:00 | 00:00:00 | |
| RDZ2B | 2026-09-05 13:13:23 | 41.79266 | 8.88612 | 266° | 16km/h | 22682m | -28.3m/s | 0°C | 0% | 0hPa | 0V | 00:00:00 | 00:00:00 | 00:00:00 | |
| AUTORXJP | 2026-09-05 13:13:21 | 41.79258 | 8.88641 | 301° | 16km/h | 22831m | -28.3m/s | -52.1°C | 0.0% | 34.6hPa | 0V | 00:00:00 | 00:00:00 | 00:00:00 | |
| AUTORXJP | 2026-09-05 13:12:50 | 41.79131 | 8.88716 | 11° | 18km/h | 23737m | -31.1m/s | -52.2°C | 0.0% | 29.6hPa | 0V | 00:00:00 | 00:00:00 | 00:00:00 | |
| RDZBGO | 2026-09-05 13:12:26 | 41.79093 | 8.88701 | 11° | 13km/h | 24578m | -33.8m/s | 0°C | 0% | 0hPa | 0V | 00:00:00 | 00:00:00 | 00:00:00 | |
| AUTORXJP | 2026-09-05 13:12:19 | 41.79077 | 8.88692 | 33° | 5km/h | 24854m | -36.0m/s | -49.6°C | 0.0% | 24.4hPa | 0V | 00:00:00 | 00:00:00 | 00:00:00 | |
| RDZ2B | 2026-09-05 13:12:18 | 41.79077 | 8.88692 | 34° | 7km/h | 24855m | -36.0m/s | 0°C | 0% | 0hPa | 0V | 00:00:00 | 00:00:00 | 00:00:00 | |
| RDZBGO | 2026-09-05 13:12:05 | 41.79052 | 8.88646 | 64° | 9km/h | 25366m | -47.5m/s | 0°C | 0% | 0hPa | 0V | 00:00:00 | 00:00:00 | 00:00:00 | |
| AUTORXJP | 2026-09-05 13:11:48 | 41.79007 | 8.88651 | 356° | 2km/h | 26181m | -41.4m/s | -48.9°C | 0.0% | 19.2hPa | 0V | 00:00:00 | 00:00:00 | 00:00:00 | |
| RDZ2B | 2026-09-05 13:11:44 | 41.79004 | 8.88651 | 348° | 7km/h | 26315m | -45.8m/s | 0°C | 0% | 0hPa | 0V | 00:00:00 | 00:00:00 | 00:00:00 | |
| RDZBGO | 2026-09-05 13:11:40 | 41.78992 | 8.88652 | 12° | 15km/h | 26506m | -48.7m/s | 0°C | 0% | 0hPa | 0V | 00:00:00 | 00:00:00 | 00:00:00 | |
| AUTORXJP | 2026-09-05 13:11:17 | 41.78975 | 8.88586 | 117° | 16km/h | 27600m | -47.1m/s | -44.8°C | 0.0% | 14.8hPa | 0V | 00:00:00 | 00:00:00 | 00:00:00 | |
| RDZBGO | 2026-09-05 13:11:15 | 41.78977 | 8.88581 | 128° | 15km/h | 27649m | -48.9m/s | 0°C | 0% | 0hPa | 0V | 00:00:00 | 00:00:00 | 00:00:00 | |
| AUTORXJP | 2026-09-05 13:10:46 | 41.79091 | 8.88601 | 225° | 7km/h | 29296m | -52.2m/s | -43.6°C | 0.0% | 10.7hPa | 0V | 00:00:00 | 00:00:00 | 00:00:00 | |
| RDZBGO | 2026-09-05 13:10:35 | 41.79118 | 8.88620 | 242° | 26km/h | 29792m | -43.1m/s | 0°C | 0% | 0hPa | 0V | 00:00:00 | 00:00:00 | 00:00:00 | |
| AUTORXJP | 2026-09-05 13:10:15 | 41.79126 | 8.88762 | 275° | 20km/h | 30842m | -56.0m/s | -42.3°C | 0.0% | 7.8hPa | 0V | 00:00:00 | 00:00:00 | 00:00:00 | |
| AUTORXJP | 2026-09-05 13:09:44 | 41.79021 | 8.89081 | 290° | 33km/h | 32687m | -57.0m/s | -36.6°C | 0.0% | 5.1hPa | 0V | 00:00:00 | 00:00:00 | 00:00:00 | |
| RDZBGO | 2026-09-05 13:09:27 | 41.79012 | 8.89149 | 223° | 9km/h | 33531m | -42.2m/s | 0°C | 0% | 0hPa | 0V | 00:00:00 | 00:00:00 | 00:00:00 | |
| RDZ2B | 2026-09-05 13:09:21 | 41.78997 | 8.89169 | 305° | 31km/h | 33802m | -44.6m/s | 0°C | 0% | 0hPa | 0V | 00:00:00 | 00:00:00 | 00:00:00 | |
| AUTORXJP | 2026-09-05 13:09:13 | 41.78979 | 8.89210 | 131° | 7km/h | 34166m | -35.2m/s | -36.8°C | 0.0% | 3.5hPa | 0V | 00:00:00 | 00:00:00 | 00:00:00 | |
| RDZBGO | 2026-09-05 13:09:05 | 41.78953 | 8.89235 | 311° | 27km/h | 34388m | -33.0m/s | 0°C | 0% | 0hPa | 0V | 00:00:00 | 00:00:00 | 00:00:00 | |
| RDZ2B | 2026-09-05 13:08:54 | 41.78901 | 8.89301 | 257° | 33km/h | 34753m | -42.0m/s | 0°C | 0% | 0hPa | 0V | 00:00:00 | 00:00:00 | 00:00:00 | |
| RDZBGO | 2026-09-05 13:08:45 | 41.78859 | 8.89347 | 264° | 62km/h | 34820m | 3.9m/s | 0°C | 0% | 0hPa | 0V | 00:00:00 | 00:00:00 | 00:00:00 | |
| AUTORXJP | 2026-09-05 13:08:42 | 41.78877 | 8.89356 | 82° | 46km/h | 34794m | 7.4m/s | -36.4°C | 0.0% | 2.9hPa | 0V | 00:00:00 | 00:00:00 | 00:00:00 | |
| RDZBGO | 2026-09-05 13:08:24 | 41.78807 | 8.89421 | 184° | 40km/h | 34692m | 6.8m/s | 0°C | 0% | 0hPa | 0V | 00:00:00 | 00:00:00 | 00:00:00 | |
| AUTORXJP | 2026-09-05 13:08:11 | 41.78738 | 8.89430 | 334° | 77km/h | 34601m | 8.3m/s | -36.2°C | 0.0% | 3.1hPa | 0V | 00:00:00 | 00:00:00 | 00:00:00 | |
| RDZBGO | 2026-09-05 13:08:00 | 41.78680 | 8.89498 | 316° | 82km/h | 34535m | 7.8m/s | 0°C | 0% | 0hPa | 0V | 00:00:00 | 00:00:00 | 00:00:00 | |
| RDZ2B | 2026-09-05 13:07:50 | 41.78632 | 8.89557 | 302° | 80km/h | 34474m | 7.6m/s | 0°C | 0% | 0hPa | 0V | 00:00:00 | 00:00:00 | 00:00:00 | |
| AUTORXJP | 2026-09-05 13:07:40 | 41.78599 | 8.89627 | 257° | 62km/h | 34407m | 3.1m/s | -35.9°C | 0.0% | 3.3hPa | 0V | 00:00:00 | 00:00:00 | 00:00:00 | |
| RDZBGO | 2026-09-05 13:07:20 | 41.78566 | 8.89685 | 266° | 60km/h | 34299m | 1.2m/s | 0°C | 0% | 0hPa | 0V | 00:00:00 | 00:00:00 | 00:00:00 | |
| RDZ2B | 2026-09-05 13:07:11 | 41.78563 | 8.89682 | 278° | 64km/h | 34242m | 6.9m/s | 0°C | 0% | 0hPa | 0V | 00:00:00 | 00:00:00 | 00:00:00 | |
| RDZBGO | 2026-09-05 13:06:58 | 41.78579 | 8.89720 | 144° | 44km/h | 34167m | 6.4m/s | 0°C | 0% | 0hPa | 0V | 00:00:00 | 00:00:00 | 00:00:00 | |
| RDZBGO | 2026-09-05 13:06:37 | 41.78538 | 8.89744 | 91° | 51km/h | 34048m | 3.8m/s | 0°C | 0% | 0hPa | 0V | 00:00:00 | 00:00:00 | 00:00:00 | |
| RDZBGO | 2026-09-05 13:06:16 | 41.78474 | 8.89799 | 7° | 55km/h | 33939m | 4.3m/s | 0°C | 0% | 0hPa | 0V | 00:00:00 | 00:00:00 | 00:00:00 | |
| RDZ2B | 2026-09-05 13:06:03 | 41.78412 | 8.89901 | 256° | 62km/h | 33868m | 5.3m/s | 0°C | 0% | 0hPa | 0V | 00:00:00 | 00:00:00 | 00:00:00 | |
| RDZBGO | 2026-09-05 13:05:55 | 41.78399 | 8.89914 | 294° | 69km/h | 33815m | 7.4m/s | 0°C | 0% | 0hPa | 0V | 00:00:00 | 00:00:00 | 00:00:00 | |
| RDZBGO | 2026-09-05 13:05:34 | 41.78362 | 8.90032 | 233° | 49km/h | 33699m | 3.5m/s | 0°C | 0% | 0hPa | 0V | 00:00:00 | 00:00:00 | 00:00:00 | |
| RDZBGO | 2026-09-05 13:05:13 | 41.78369 | 8.90089 | 165° | 64km/h | 33573m | 6.8m/s | 0°C | 0% | 0hPa | 0V | 00:00:00 | 00:00:00 | 00:00:00 | |
| RDZBGO | 2026-09-05 13:04:53 | 41.78392 | 8.90076 | 80° | 55km/h | 33455m | 6.2m/s | 0°C | 0% | 0hPa | 0V | 00:00:00 | 00:00:00 | 00:00:00 | |
| RDZ2B | 2026-09-05 13:04:42 | 41.78379 | 8.90062 | 359° | 60km/h | 33387m | 10.4m/s | 0°C | 0% | 0hPa | 0V | 00:00:00 | 00:00:00 | 00:00:00 | |
| RDZBGO | 2026-09-05 13:04:32 | 41.78360 | 8.90079 | 324° | 58km/h | 33328m | 7.4m/s | 0°C | 0% | 0hPa | 0V | 00:00:00 | 00:00:00 | 00:00:00 | |
| RDZ2B | 2026-09-05 13:04:21 | 41.78333 | 8.90131 | 262° | 49km/h | 33266m | 6.1m/s | 0°C | 0% | 0hPa | 0V | 00:00:00 | 00:00:00 | 00:00:00 | |
| RDZBGO | 2026-09-05 13:04:12 | 41.78316 | 8.90145 | 267° | 58km/h | 33206m | 4.5m/s | 0°C | 0% | 0hPa | 0V | 00:00:00 | 00:00:00 | 00:00:00 | |
| RDZ2B | 2026-09-05 13:03:57 | 41.78298 | 8.90171 | 354° | 73km/h | 33114m | 8.5m/s | 0°C | 0% | 0hPa | 0V | 00:00:00 | 00:00:00 | 00:00:00 | |
| RDZBGO | 2026-09-05 13:03:51 | 41.78287 | 8.90248 | 107° | 35km/h | 33072m | 5.3m/s | 0°C | 0% | 0hPa | 0V | 00:00:00 | 00:00:00 | 00:00:00 | |
| RDZ2B | 2026-09-05 13:03:37 | 41.78199 | 8.90351 | 284° | 88km/h | 32983m | 3.5m/s | 0°C | 0% | 0hPa | 0V | 00:00:00 | 00:00:00 | 00:00:00 | |
| RDZBGO | 2026-09-05 13:03:31 | 41.78204 | 8.90388 | 2° | 60km/h | 32946m | 8.4m/s | 0°C | 0% | 0hPa | 0V | 00:00:00 | 00:00:00 | 00:00:00 | |
| RDZ2B | 2026-09-05 13:03:16 | 41.78142 | 8.90606 | 188° | 33km/h | 32852m | 8.9m/s | 0°C | 0% | 0hPa | 0V | 00:00:00 | 00:00:00 | 00:00:00 | |
| RDZBGO | 2026-09-05 13:03:09 | 41.78099 | 8.90689 | 251° | 80km/h | 32808m | 6.9m/s | 0°C | 0% | 0hPa | 0V | 00:00:00 | 00:00:00 | 00:00:00 | |
| RDZBGO | 2026-09-05 13:02:47 | 41.78068 | 8.90886 | 32° | 42km/h | 32672m | 5.4m/s | 0°C | 0% | 0hPa | 0V | 00:00:00 | 00:00:00 | 00:00:00 | |
| RDZBGO | 2026-09-05 13:02:26 | 41.77960 | 8.91037 | 309° | 75km/h | 32544m | 3.8m/s | 0°C | 0% | 0hPa | 0V | 00:00:00 | 00:00:00 | 00:00:00 | |
| IW2NTF | 2026-09-05 13:02:12 | 41.77867 | 8.91171 | 319° | 80km/h | 32437m | 4.4m/s | 0°C | 0% | 0hPa | 0V | 00:00:00 | 00:00:00 | 00:00:00 | |
| RDZ2B | 2026-09-05 13:02:05 | 41.77850 | 8.91230 | 252° | 44km/h | 32420m | 5.7m/s | 0°C | 0% | 0hPa | 0V | 00:00:00 | 00:00:00 | 00:00:00 | |
| RDZBGO | 2026-09-05 13:02:01 | 41.77840 | 8.91238 | 2° | 57km/h | 32398m | 10.8m/s | 0°C | 0% | 0hPa | 0V | 00:00:00 | 00:00:00 | 00:00:00 | |
| RDZBGO | 2026-09-05 13:01:40 | 41.77683 | 8.91418 | 338° | 69km/h | 32279m | 5.1m/s | 0°C | 0% | 0hPa | 0V | 00:00:00 | 00:00:00 | 00:00:00 | |
| RDZ2B | 2026-09-05 13:01:35 | 41.77657 | 8.91490 | 233° | 37km/h | 32251m | 5.1m/s | 0°C | 0% | 0hPa | 0V | 00:00:00 | 00:00:00 | 00:00:00 | |
| RDZBGO | 2026-09-05 13:01:19 | 41.77595 | 8.91603 | 1° | 62km/h | 32169m | 6.8m/s | 0°C | 0% | 0hPa | 0V | 00:00:00 | 00:00:00 | 00:00:00 | |
| RDZ2B | 2026-09-05 13:01:13 | 41.77548 | 8.91706 | 227° | 55km/h | 32138m | 4.2m/s | 0°C | 0% | 0hPa | 0V | 00:00:00 | 00:00:00 | 00:00:00 | |
| RDZBGO | 2026-09-05 13:00:56 | 41.77464 | 8.91894 | 221° | 57km/h | 32050m | 6.0m/s | 0°C | 0% | 0hPa | 0V | 00:00:00 | 00:00:00 | 00:00:00 | |
| RDZ2B | 2026-09-05 13:00:50 | 41.77428 | 8.91939 | 280° | 86km/h | 32019m | 2.0m/s | 0°C | 0% | 0hPa | 0V | 00:00:00 | 00:00:00 | 00:00:00 | |
| RDZBGO | 2026-09-05 13:00:33 | 41.77373 | 8.92153 | 271° | 73km/h | 31915m | 4.3m/s | 0°C | 0% | 0hPa | 0V | 00:00:00 | 00:00:00 | 00:00:00 | |
| RDZ2B | 2026-09-05 13:00:23 | 41.77355 | 8.92295 | 260° | 55km/h | 31857m | 9.3m/s | 0°C | 0% | 0hPa | 0V | 00:00:00 | 00:00:00 | 00:00:00 | |
| RDZBGO | 2026-09-05 13:00:11 | 41.77357 | 8.92464 | 211° | 33km/h | 31777m | 3.7m/s | 0°C | 0% | 0hPa | 0V | 00:00:00 | 00:00:00 | 00:00:00 | |
| RDZ2B | 2026-09-05 13:00:02 | 41.77335 | 8.92583 | 227° | 51km/h | 31724m | 2.6m/s | 0°C | 0% | 0hPa | 0V | 00:00:00 | 00:00:00 | 00:00:00 | |
| RDZBGO | 2026-09-05 12:59:27 | 41.77280 | 8.93000 | 192° | 47km/h | 31506m | 7.3m/s | 0°C | 0% | 0hPa | 0V | 00:00:00 | 00:00:00 | 00:00:00 | |
| RDZ2B | 2026-09-05 12:59:20 | 41.77261 | 8.93064 | 237° | 78km/h | 31460m | 9.7m/s | 0°C | 0% | 0hPa | 0V | 00:00:00 | 00:00:00 | 00:00:00 | |
| RDZBGO | 2026-09-05 12:59:07 | 41.77275 | 8.93158 | 339° | 58km/h | 31372m | 9.8m/s | 0°C | 0% | 0hPa | 0V | 00:00:00 | 00:00:00 | 00:00:00 | |
| RDZBGO | 2026-09-05 12:58:47 | 41.77261 | 8.93385 | 234° | 73km/h | 31240m | 8.7m/s | 0°C | 0% | 0hPa | 0V | 00:00:00 | 00:00:00 | 00:00:00 | |
| RDZ2B | 2026-09-05 12:58:46 | 41.77274 | 8.93398 | 200° | 55km/h | 31230m | 9.4m/s | 0°C | 0% | 0hPa | 0V | 00:00:00 | 00:00:00 | 00:00:00 | |
| RDZBGO | 2026-09-05 12:58:26 | 41.77271 | 8.93535 | 320° | 58km/h | 31102m | 5.2m/s | 0°C | 0% | 0hPa | 0V | 00:00:00 | 00:00:00 | 00:00:00 | |
| RDZ2B | 2026-09-05 12:58:24 | 41.77266 | 8.93571 | 251° | 57km/h | 31094m | 6.9m/s | 0°C | 0% | 0hPa | 0V | 00:00:00 | 00:00:00 | 00:00:00 | |
| RDZBGO | 2026-09-05 12:58:05 | 41.77240 | 8.93730 | 259° | 22km/h | 30978m | 10.8m/s | 0°C | 0% | 0hPa | 0V | 00:00:00 | 00:00:00 | 00:00:00 | |
| RDZ2B | 2026-09-05 12:57:58 | 41.77225 | 8.93768 | 295° | 66km/h | 30927m | 1.9m/s | 0°C | 0% | 0hPa | 0V | 00:00:00 | 00:00:00 | 00:00:00 | |
| RDZBGO | 2026-09-05 12:57:45 | 41.77228 | 8.93892 | 170° | 27km/h | 30855m | 3.2m/s | 0°C | 0% | 0hPa | 0V | 00:00:00 | 00:00:00 | 00:00:00 | |
| RDZ2B | 2026-09-05 12:57:38 | 41.77203 | 8.93960 | 209° | 55km/h | 30816m | 7.1m/s | 0°C | 0% | 0hPa | 0V | 00:00:00 | 00:00:00 | 00:00:00 | |
| RDZBGO | 2026-09-05 12:57:24 | 41.77168 | 8.94071 | 254° | 66km/h | 30739m | 5.5m/s | 0°C | 0% | 0hPa | 0V | 00:00:00 | 00:00:00 | 00:00:00 | |
| RDZBGO | 2026-09-05 12:57:04 | 41.77188 | 8.94214 | 27° | 22km/h | 30635m | 5.8m/s | 0°C | 0% | 0hPa | 0V | 00:00:00 | 00:00:00 | 00:00:00 | |
| RDZ2B | 2026-09-05 12:56:51 | 41.77180 | 8.94341 | 205° | 53km/h | 30561m | 10.4m/s | 0°C | 0% | 0hPa | 0V | 00:00:00 | 00:00:00 | 00:00:00 | |
| RDZBGO | 2026-09-05 12:56:42 | 41.77192 | 8.94391 | 133° | 46km/h | 30509m | 4.4m/s | 0°C | 0% | 0hPa | 0V | 00:00:00 | 00:00:00 | 00:00:00 | |
| IW2NTF | 2026-09-05 12:56:21 | 41.77176 | 8.94516 | 14° | 13km/h | 30375m | 4.3m/s | 0°C | 0% | 0hPa | 0V | 00:00:00 | 00:00:00 | 00:00:00 | |
| RDZBGO | 2026-09-05 12:56:21 | 41.77163 | 8.94518 | 267° | 42km/h | 30403m | 0.2m/s | 0°C | 0% | 0hPa | 0V | 00:00:00 | 00:00:00 | 00:00:00 | |
| RDZ2B | 2026-09-05 12:56:15 | 41.77171 | 8.94518 | 326° | 27km/h | 30369m | 9.4m/s | 0°C | 0% | 0hPa | 0V | 00:00:00 | 00:00:00 | 00:00:00 | |
| RDZBGO | 2026-09-05 12:56:01 | 41.77179 | 8.94633 | 191° | 53km/h | 30293m | 6.0m/s | 0°C | 0% | 0hPa | 0V | 00:00:00 | 00:00:00 | 00:00:00 | |
| RDZ2B | 2026-09-05 12:55:55 | 41.77172 | 8.94660 | 253° | 68km/h | 30262m | 4.6m/s | 0°C | 0% | 0hPa | 0V | 00:00:00 | 00:00:00 | 00:00:00 | |
| RDZBGO | 2026-09-05 12:55:40 | 41.77218 | 8.94749 | 267° | 68km/h | 30181m | 2.1m/s | 0°C | 0% | 0hPa | 0V | 00:00:00 | 00:00:00 | 00:00:00 | |
| RDZ2B | 2026-09-05 12:55:24 | 41.77266 | 8.94848 | 246° | 42km/h | 30093m | 1.4m/s | 0°C | 0% | 0hPa | 0V | 00:00:00 | 00:00:00 | 00:00:00 | |
| RDZBGO | 2026-09-05 12:55:20 | 41.77299 | 8.94852 | 165° | 18km/h | 30069m | -4.1m/s | 0°C | 0% | 0hPa | 0V | 00:00:00 | 00:00:00 | 00:00:00 | |
| RDZBGO | 2026-09-05 12:55:00 | 41.77360 | 8.94956 | 166° | 18km/h | 29948m | 4.8m/s | 0°C | 0% | 0hPa | 0V | 00:00:00 | 00:00:00 | 00:00:00 | |
| RDZ2B | 2026-09-05 12:54:56 | 41.77389 | 8.94982 | 247° | 46km/h | 29922m | 3.1m/s | 0°C | 0% | 0hPa | 0V | 00:00:00 | 00:00:00 | 00:00:00 | |
| RDZBGO | 2026-09-05 12:54:39 | 41.77446 | 8.95014 | 192° | 68km/h | 29827m | 4.0m/s | 0°C | 0% | 0hPa | 0V | 00:00:00 | 00:00:00 | 00:00:00 | |
| RDZ2B | 2026-09-05 12:54:35 | 41.77450 | 8.95060 | 21° | 42km/h | 29807m | 1.6m/s | 0°C | 0% | 0hPa | 0V | 00:00:00 | 00:00:00 | 00:00:00 | |
| RDZBGO | 2026-09-05 12:54:18 | 41.77505 | 8.95020 | 134° | 57km/h | 29697m | 11.1m/s | 0°C | 0% | 0hPa | 0V | 00:00:00 | 00:00:00 | 00:00:00 | |
| RDZ2B | 2026-09-05 12:54:12 | 41.77518 | 8.95037 | 70° | 51km/h | 29660m | 5.3m/s | 0°C | 0% | 0hPa | 0V | 00:00:00 | 00:00:00 | 00:00:00 | |
| RDZBGO | 2026-09-05 12:53:57 | 41.77520 | 8.95032 | 76° | 47km/h | 29565m | 7.0m/s | 0°C | 0% | 0hPa | 0V | 00:00:00 | 00:00:00 | 00:00:00 | |
| RDZ2B | 2026-09-05 12:53:48 | 41.77517 | 8.95034 | 143° | 46km/h | 29506m | 11.4m/s | 0°C | 0% | 0hPa | 0V | 00:00:00 | 00:00:00 | 00:00:00 | |
| RDZBGO | 2026-09-05 12:53:36 | 41.77545 | 8.95077 | 313° | 51km/h | 29433m | 7.8m/s | 0°C | 0% | 0hPa | 0V | 00:00:00 | 00:00:00 | 00:00:00 | |
| RDZ2B | 2026-09-05 12:53:26 | 41.77545 | 8.95080 | 96° | 57km/h | 29375m | 3.0m/s | 0°C | 0% | 0hPa | 0V | 00:00:00 | 00:00:00 | 00:00:00 | |
| RDZBGO | 2026-09-05 12:53:16 | 41.77610 | 8.95068 | 234° | 68km/h | 29316m | 5.3m/s | 0°C | 0% | 0hPa | 0V | 00:00:00 | 00:00:00 | 00:00:00 | |
| RDZ2B | 2026-09-05 12:52:58 | 41.77666 | 8.95068 | 109° | 58km/h | 29207m | 6.1m/s | 0°C | 0% | 0hPa | 0V | 00:00:00 | 00:00:00 | 00:00:00 | |
| RDZBGO | 2026-09-05 12:52:53 | 41.77705 | 8.95082 | 352° | 40km/h | 29183m | 4.8m/s | 0°C | 0% | 0hPa | 0V | 00:00:00 | 00:00:00 | 00:00:00 | |
| RDZ2B | 2026-09-05 12:52:36 | 41.77739 | 8.95047 | 120° | 62km/h | 29094m | 1.9m/s | 0°C | 0% | 0hPa | 0V | 00:00:00 | 00:00:00 | 00:00:00 | |
| RDZBGO | 2026-09-05 12:52:33 | 41.77773 | 8.95049 | 254° | 58km/h | 29079m | 7.8m/s | 0°C | 0% | 0hPa | 0V | 00:00:00 | 00:00:00 | 00:00:00 | |
| RDZ2B | 2026-09-05 12:52:13 | 41.77771 | 8.95059 | 118° | 40km/h | 28974m | 1.5m/s | 0°C | 0% | 0hPa | 0V | 00:00:00 | 00:00:00 | 00:00:00 | |
| RDZBGO | 2026-09-05 12:52:12 | 41.77776 | 8.95052 | 162° | 29km/h | 28972m | 3.0m/s | 0°C | 0% | 0hPa | 0V | 00:00:00 | 00:00:00 | 00:00:00 | |
| RDZBGO | 2026-09-05 12:51:50 | 41.77821 | 8.95108 | 330° | 26km/h | 28866m | 9.4m/s | 0°C | 0% | 0hPa | 0V | 00:00:00 | 00:00:00 | 00:00:00 | |
| RDZ2B | 2026-09-05 12:51:48 | 41.77808 | 8.95096 | 72° | 40km/h | 28852m | 1.6m/s | 0°C | 0% | 0hPa | 0V | 00:00:00 | 00:00:00 | 00:00:00 | |
| RDZBGO | 2026-09-05 12:51:29 | 41.77845 | 8.95078 | 210° | 64km/h | 28762m | 6.5m/s | 0°C | 0% | 0hPa | 0V | 00:00:00 | 00:00:00 | 00:00:00 | |
| RDZBGO | 2026-09-05 12:51:06 | 41.77871 | 8.95088 | 260° | 55km/h | 28636m | 4.4m/s | 0°C | 0% | 0hPa | 0V | 00:00:00 | 00:00:00 | 00:00:00 | |
| RDZ2B | 2026-09-05 12:50:55 | 41.77867 | 8.95072 | 100° | 66km/h | 28579m | 4.1m/s | 0°C | 0% | 0hPa | 0V | 00:00:00 | 00:00:00 | 00:00:00 | |
| RDZBGO | 2026-09-05 12:50:24 | 41.77951 | 8.94932 | 140° | 69km/h | 28405m | 4.1m/s | 0°C | 0% | 0hPa | 0V | 00:00:00 | 00:00:00 | 00:00:00 | |
| RDZ2B | 2026-09-05 12:50:16 | 41.77969 | 8.94898 | 177° | 55km/h | 28361m | 2.6m/s | 0°C | 0% | 0hPa | 0V | 00:00:00 | 00:00:00 | 00:00:00 | |
| RDZBGO | 2026-09-05 12:50:03 | 41.77948 | 8.94846 | 138° | 60km/h | 28282m | 8.2m/s | 0°C | 0% | 0hPa | 0V | 00:00:00 | 00:00:00 | 00:00:00 | |
| RDZ2B | 2026-09-05 12:49:48 | 41.77918 | 8.94783 | 198° | 44km/h | 28191m | 7.6m/s | 0°C | 0% | 0hPa | 0V | 00:00:00 | 00:00:00 | 00:00:00 | |
| RDZBGO | 2026-09-05 12:49:42 | 41.77892 | 8.94769 | 131° | 49km/h | 28152m | 10.9m/s | 0°C | 0% | 0hPa | 0V | 00:00:00 | 00:00:00 | 00:00:00 | |
| RDZBGO | 2026-09-05 12:49:21 | 41.77875 | 8.94718 | 110° | 64km/h | 28028m | 4.2m/s | 0°C | 0% | 0hPa | 0V | 00:00:00 | 00:00:00 | 00:00:00 | |
| RDZ2B | 2026-09-05 12:49:01 | 41.77925 | 8.94656 | 62° | 55km/h | 27907m | 5.5m/s | 0°C | 0% | 0hPa | 0V | 00:00:00 | 00:00:00 | 00:00:00 | |
| RDZBGO | 2026-09-05 12:48:40 | 41.77965 | 8.94548 | 11° | 49km/h | 27783m | 8.8m/s | 0°C | 0% | 0hPa | 0V | 00:00:00 | 00:00:00 | 00:00:00 | |
| RDZ2B | 2026-09-05 12:48:39 | 41.77954 | 8.94538 | 48° | 62km/h | 27774m | 6.7m/s | 0°C | 0% | 0hPa | 0V | 00:00:00 | 00:00:00 | 00:00:00 | |
| RDZBGO | 2026-09-05 12:48:19 | 41.77942 | 8.94410 | 321° | 37km/h | 27662m | 1.6m/s | 0°C | 0% | 0hPa | 0V | 00:00:00 | 00:00:00 | 00:00:00 | |
| IW2NTF | 2026-09-05 12:48:13 | 41.77868 | 8.94312 | 128° | 46km/h | 27592m | 3.9m/s | 0°C | 0% | 0hPa | 0V | 00:00:00 | 00:00:00 | 00:00:00 | |
| RDZBGO | 2026-09-05 12:47:59 | 41.77841 | 8.94269 | 178° | 31km/h | 27546m | 5.6m/s | 0°C | 0% | 0hPa | 0V | 00:00:00 | 00:00:00 | 00:00:00 | |
| RDZ2B | 2026-09-05 12:47:54 | 41.77801 | 8.94270 | 74° | 68km/h | 27516m | 6.7m/s | 0°C | 0% | 0hPa | 0V | 00:00:00 | 00:00:00 | 00:00:00 | |
| RDZBGO | 2026-09-05 12:47:39 | 41.77751 | 8.94220 | 187° | 31km/h | 27426m | 7.4m/s | 0°C | 0% | 0hPa | 0V | 00:00:00 | 00:00:00 | 00:00:00 | |
| RDZ2B | 2026-09-05 12:47:33 | 41.77711 | 8.94230 | 64° | 58km/h | 27394m | 9.2m/s | 0°C | 0% | 0hPa | 0V | 00:00:00 | 00:00:00 | 00:00:00 | |
| RDZBGO | 2026-09-05 12:47:16 | 41.77664 | 8.94200 | 223° | 37km/h | 27298m | 7.2m/s | 0°C | 0% | 0hPa | 0V | 00:00:00 | 00:00:00 | 00:00:00 | |
| RDZ2B | 2026-09-05 12:47:10 | 41.77626 | 8.94207 | 135° | 40km/h | 27255m | 3.7m/s | 0°C | 0% | 0hPa | 0V | 00:00:00 | 00:00:00 | 00:00:00 | |
| RDZBGO | 2026-09-05 12:46:55 | 41.77573 | 8.94212 | 197° | 33km/h | 27166m | 3.9m/s | 0°C | 0% | 0hPa | 0V | 00:00:00 | 00:00:00 | 00:00:00 | |
| IW2NTF | 2026-09-05 12:46:53 | 41.77543 | 8.94238 | 108° | 38km/h | 27126m | 8.7m/s | 0°C | 0% | 0hPa | 0V | 00:00:00 | 00:00:00 | 00:00:00 | |
| RDZ2B | 2026-09-05 12:46:49 | 41.77543 | 8.94238 | 110° | 38km/h | 27126m | 8.7m/s | 0°C | 0% | 0hPa | 0V | 00:00:00 | 00:00:00 | 00:00:00 | |
| RDZBGO | 2026-09-05 12:46:34 | 41.77531 | 8.94248 | 149° | 47km/h | 27043m | 3.7m/s | 0°C | 0% | 0hPa | 0V | 00:00:00 | 00:00:00 | 00:00:00 | |
| RDZ2B | 2026-09-05 12:46:27 | 41.77521 | 8.94252 | 134° | 40km/h | 27006m | 9.6m/s | 0°C | 0% | 0hPa | 0V | 00:00:00 | 00:00:00 | 00:00:00 | |
| RDZBGO | 2026-09-05 12:46:13 | 41.77499 | 8.94254 | 109° | 38km/h | 26922m | 11.5m/s | 0°C | 0% | 0hPa | 0V | 00:00:00 | 00:00:00 | 00:00:00 | |
| RDZ2B | 2026-09-05 12:46:05 | 41.77488 | 8.94229 | 114° | 35km/h | 26877m | 9.5m/s | 0°C | 0% | 0hPa | 0V | 00:00:00 | 00:00:00 | 00:00:00 | |
| RDZBGO | 2026-09-05 12:45:53 | 41.77465 | 8.94231 | 352° | 31km/h | 26810m | 10.1m/s | 0°C | 0% | 0hPa | 0V | 00:00:00 | 00:00:00 | 00:00:00 | |
| RDZ2B | 2026-09-05 12:45:41 | 41.77419 | 8.94215 | 194° | 15km/h | 26740m | 1.5m/s | 0°C | 0% | 0hPa | 0V | 00:00:00 | 00:00:00 | 00:00:00 | |
| RDZBGO | 2026-09-05 12:45:33 | 41.77388 | 8.94217 | 227° | 26km/h | 26695m | 2.7m/s | 0°C | 0% | 0hPa | 0V | 00:00:00 | 00:00:00 | 00:00:00 | |
| RDZ2B | 2026-09-05 12:45:21 | 41.77348 | 8.94222 | 69° | 42km/h | 26636m | 5.8m/s | 0°C | 0% | 0hPa | 0V | 00:00:00 | 00:00:00 | 00:00:00 | |
| RDZBGO | 2026-09-05 12:45:10 | 41.77353 | 8.94200 | 267° | 24km/h | 26572m | 4.4m/s | 0°C | 0% | 0hPa | 0V | 00:00:00 | 00:00:00 | 00:00:00 | |
| RDZ2B | 2026-09-05 12:44:59 | 41.77318 | 8.94200 | 38° | 44km/h | 26508m | 2.5m/s | 0°C | 0% | 0hPa | 0V | 00:00:00 | 00:00:00 | 00:00:00 | |
| RDZBGO | 2026-09-05 12:44:50 | 41.77298 | 8.94176 | 75° | 24km/h | 26462m | 4.5m/s | 0°C | 0% | 0hPa | 0V | 00:00:00 | 00:00:00 | 00:00:00 | |
| RDZ2B | 2026-09-05 12:44:39 | 41.77286 | 8.94163 | 242° | 15km/h | 26400m | 2.7m/s | 0°C | 0% | 0hPa | 0V | 00:00:00 | 00:00:00 | 00:00:00 | |
| RDZBGO | 2026-09-05 12:44:30 | 41.77263 | 8.94149 | 33° | 29km/h | 26348m | 8.4m/s | 0°C | 0% | 0hPa | 0V | 00:00:00 | 00:00:00 | 00:00:00 | |
| RDZ2B | 2026-09-05 12:44:17 | 41.77232 | 8.94122 | 298° | 5km/h | 26282m | 3.5m/s | 0°C | 0% | 0hPa | 0V | 00:00:00 | 00:00:00 | 00:00:00 | |
| RDZBGO | 2026-09-05 12:44:09 | 41.77208 | 8.94115 | 187° | 5km/h | 26240m | 2.4m/s | 0°C | 0% | 0hPa | 0V | 00:00:00 | 00:00:00 | 00:00:00 | |
| IW2NTF | 2026-09-05 12:44:05 | 41.77180 | 8.94094 | 25° | 33km/h | 26182m | 5.7m/s | 0°C | 0% | 0hPa | 0V | 00:00:00 | 00:00:00 | 00:00:00 | |
| RDZ2B | 2026-09-05 12:43:58 | 41.77165 | 8.94090 | 360° | 22km/h | 26174m | 5.0m/s | 0°C | 0% | 0hPa | 0V | 00:00:00 | 00:00:00 | 00:00:00 | |
| RDZBGO | 2026-09-05 12:43:48 | 41.77134 | 8.94086 | 233° | 15km/h | 26125m | 7.2m/s | 0°C | 0% | 0hPa | 0V | 00:00:00 | 00:00:00 | 00:00:00 | |
| RDZ2B | 2026-09-05 12:43:37 | 41.77099 | 8.94086 | 5° | 24km/h | 26070m | 7.7m/s | 0°C | 0% | 0hPa | 0V | 00:00:00 | 00:00:00 | 00:00:00 | |
| IW2NTF | 2026-09-05 12:43:33 | 41.77068 | 8.94094 | 211° | 7km/h | 26039m | 4.5m/s | 0°C | 0% | 0hPa | 0V | 00:00:00 | 00:00:00 | 00:00:00 | |
| RDZBGO | 2026-09-05 12:43:27 | 41.77046 | 8.94083 | 347° | 27km/h | 26017m | 4.0m/s | 0°C | 0% | 0hPa | 0V | 00:00:00 | 00:00:00 | 00:00:00 | |
| IW2NTF | 2026-09-05 12:43:25 | 41.77010 | 8.94083 | 288° | 15km/h | 25970m | 12.7m/s | 0°C | 0% | 0hPa | 0V | 00:00:00 | 00:00:00 | 00:00:00 | |
| RDZ2B | 2026-09-05 12:43:16 | 41.77018 | 8.94092 | 193° | 24km/h | 25954m | 1.1m/s | 0°C | 0% | 0hPa | 0V | 00:00:00 | 00:00:00 | 00:00:00 | |
| RDZBGO | 2026-09-05 12:43:07 | 41.76998 | 8.94083 | 245° | 11km/h | 25904m | 4.2m/s | 0°C | 0% | 0hPa | 0V | 00:00:00 | 00:00:00 | 00:00:00 | |
| IW2NTF | 2026-09-05 12:43:04 | 41.76969 | 8.94094 | 345° | 16km/h | 25849m | 5.2m/s | 0°C | 0% | 0hPa | 0V | 00:00:00 | 00:00:00 | 00:00:00 | |
| RDZ2B | 2026-09-05 12:42:55 | 41.76962 | 8.94096 | 322° | 7km/h | 25832m | 3.8m/s | 0°C | 0% | 0hPa | 0V | 00:00:00 | 00:00:00 | 00:00:00 | |
| IW2NTF | 2026-09-05 12:42:53 | 41.76939 | 8.94118 | 138° | 9km/h | 25798m | 6.8m/s | 0°C | 0% | 0hPa | 0V | 00:00:00 | 00:00:00 | 00:00:00 | |
| RDZBGO | 2026-09-05 12:42:45 | 41.76927 | 8.94120 | 322° | 40km/h | 25774m | 5.7m/s | 0°C | 0% | 0hPa | 0V | 00:00:00 | 00:00:00 | 00:00:00 | |
| IW2NTF | 2026-09-05 12:42:38 | 41.76902 | 8.94153 | 317° | 29km/h | 25732m | 4.3m/s | 0°C | 0% | 0hPa | 0V | 00:00:00 | 00:00:00 | 00:00:00 | |
| RDZ2B | 2026-09-05 12:42:33 | 41.76906 | 8.94174 | 231° | 9km/h | 25711m | 4.0m/s | 0°C | 0% | 0hPa | 0V | 00:00:00 | 00:00:00 | 00:00:00 | |
| IW2NTF | 2026-09-05 12:42:32 | 41.76901 | 8.94189 | 148° | 7km/h | 25664m | 6.3m/s | 0°C | 0% | 0hPa | 0V | 00:00:00 | 00:00:00 | 00:00:00 | |
| RDZBGO | 2026-09-05 12:42:25 | 41.76901 | 8.94188 | 150° | 7km/h | 25665m | 6.3m/s | 0°C | 0% | 0hPa | 0V | 00:00:00 | 00:00:00 | 00:00:00 | |
| RDZ2B | 2026-09-05 12:42:11 | 41.76904 | 8.94207 | 122° | 26km/h | 25588m | 3.6m/s | 0°C | 0% | 0hPa | 0V | 00:00:00 | 00:00:00 | 00:00:00 | |
| RDZBGO | 2026-09-05 12:42:04 | 41.76906 | 8.94194 | 129° | 37km/h | 25549m | 0.7m/s | 0°C | 0% | 0hPa | 0V | 00:00:00 | 00:00:00 | 00:00:00 | |
| RDZ2B | 2026-09-05 12:41:50 | 41.76884 | 8.94142 | 160° | 22km/h | 25468m | 4.5m/s | 0°C | 0% | 0hPa | 0V | 00:00:00 | 00:00:00 | 00:00:00 | |
| RDZBGO | 2026-09-05 12:41:43 | 41.76863 | 8.94119 | 188° | 26km/h | 25429m | 6.7m/s | 0°C | 0% | 0hPa | 0V | 00:00:00 | 00:00:00 | 00:00:00 | |
| IW2NTF | 2026-09-05 12:41:32 | 41.76824 | 8.94067 | 356° | 47km/h | 25365m | 2.9m/s | 0°C | 0% | 0hPa | 0V | 00:00:00 | 00:00:00 | 00:00:00 | |
| RDZ2B | 2026-09-05 12:41:27 | 41.76819 | 8.94079 | 134° | 29km/h | 25342m | 2.8m/s | 0°C | 0% | 0hPa | 0V | 00:00:00 | 00:00:00 | 00:00:00 | |
| RDZBGO | 2026-09-05 12:41:23 | 41.76799 | 8.94060 | 342° | 38km/h | 25319m | 3.2m/s | 0°C | 0% | 0hPa | 0V | 00:00:00 | 00:00:00 | 00:00:00 | |
| IW2NTF | 2026-09-05 12:41:15 | 41.76768 | 8.94042 | 120° | 16km/h | 25259m | 5.3m/s | 0°C | 0% | 0hPa | 0V | 00:00:00 | 00:00:00 | 00:00:00 | |
| IW2NTF | 2026-09-05 12:41:07 | 41.76734 | 8.94013 | 37° | 22km/h | 25203m | 4.6m/s | 0°C | 0% | 0hPa | 0V | 00:00:00 | 00:00:00 | 00:00:00 | |
| RDZ2B | 2026-09-05 12:41:03 | 41.76740 | 8.94016 | 9° | 24km/h | 25208m | 5.4m/s | 0°C | 0% | 0hPa | 0V | 00:00:00 | 00:00:00 | 00:00:00 | |
| RDZBGO | 2026-09-05 12:41:02 | 41.76734 | 8.94013 | 38° | 22km/h | 25203m | 4.6m/s | 0°C | 0% | 0hPa | 0V | 00:00:00 | 00:00:00 | 00:00:00 | |
| IW2NTF | 2026-09-05 12:40:55 | 41.76700 | 8.93979 | 150° | 24km/h | 25140m | 2.5m/s | 0°C | 0% | 0hPa | 0V | 00:00:00 | 00:00:00 | 00:00:00 | |
| RDZ2B | 2026-09-05 12:40:43 | 41.76669 | 8.93959 | 127° | 13km/h | 25094m | 5.2m/s | 0°C | 0% | 0hPa | 0V | 00:00:00 | 00:00:00 | 00:00:00 | |
| RDZBGO | 2026-09-05 12:40:42 | 41.76669 | 8.93958 | 348° | 7km/h | 25089m | 6.0m/s | 0°C | 0% | 0hPa | 0V | 00:00:00 | 00:00:00 | 00:00:00 | |
| IW2NTF | 2026-09-05 12:40:24 | 41.76600 | 8.93964 | 1° | 15km/h | 24966m | 6.7m/s | 0°C | 0% | 0hPa | 0V | 00:00:00 | 00:00:00 | 00:00:00 | |
| RDZ2B | 2026-09-05 12:40:22 | 41.76603 | 8.93966 | 103° | 5km/h | 24978m | 4.7m/s | 0°C | 0% | 0hPa | 0V | 00:00:00 | 00:00:00 | 00:00:00 | |
| RDZBGO | 2026-09-05 12:40:21 | 41.76603 | 8.93964 | 30° | 7km/h | 24973m | 5.8m/s | 0°C | 0% | 0hPa | 0V | 00:00:00 | 00:00:00 | 00:00:00 | |
| RDZ2B | 2026-09-05 12:40:02 | 41.76570 | 8.93976 | 156° | 11km/h | 24871m | 5.1m/s | 0°C | 0% | 0hPa | 0V | 00:00:00 | 00:00:00 | 00:00:00 | |
| RDZBGO | 2026-09-05 12:40:00 | 41.76572 | 8.93975 | 328° | 5km/h | 24863m | 5.9m/s | 0°C | 0% | 0hPa | 0V | 00:00:00 | 00:00:00 | 00:00:00 | |
| RDZ2B | 2026-09-05 12:39:40 | 41.76503 | 8.93967 | 333° | 16km/h | 24757m | 4.7m/s | 0°C | 0% | 0hPa | 0V | 00:00:00 | 00:00:00 | 00:00:00 | |
| RDZBGO | 2026-09-05 12:39:39 | 41.76498 | 8.93970 | 328° | 27km/h | 24751m | 8.1m/s | 0°C | 0% | 0hPa | 0V | 00:00:00 | 00:00:00 | 00:00:00 | |
| RDZ2B | 2026-09-05 12:39:18 | 41.76425 | 8.94030 | 109° | 5km/h | 24642m | 3.7m/s | 0°C | 0% | 0hPa | 0V | 00:00:00 | 00:00:00 | 00:00:00 | |
| RDZ2B | 2026-09-05 12:38:58 | 41.76374 | 8.94061 | 165° | 26km/h | 24541m | 2.4m/s | 0°C | 0% | 0hPa | 0V | 00:00:00 | 00:00:00 | 00:00:00 | |
| RDZBGO | 2026-09-05 12:38:57 | 41.76379 | 8.94060 | 203° | 11km/h | 24539m | 1.9m/s | 0°C | 0% | 0hPa | 0V | 00:00:00 | 00:00:00 | 00:00:00 | |
| IW2NTF | 2026-09-05 12:38:50 | 41.76353 | 8.94068 | 174° | 11km/h | 24494m | 3.6m/s | 0°C | 0% | 0hPa | 0V | 00:00:00 | 00:00:00 | 00:00:00 | |
| RDZ2B | 2026-09-05 12:38:37 | 41.76307 | 8.94084 | 342° | 15km/h | 24430m | 6.0m/s | 0°C | 0% | 0hPa | 0V | 00:00:00 | 00:00:00 | 00:00:00 | |
| RDZBGO | 2026-09-05 12:38:35 | 41.76304 | 8.94088 | 266° | 7km/h | 24420m | 3.5m/s | 0°C | 0% | 0hPa | 0V | 00:00:00 | 00:00:00 | 00:00:00 | |
| IW2NTF | 2026-09-05 12:38:29 | 41.76288 | 8.94118 | 308° | 42km/h | 24366m | 3.1m/s | 0°C | 0% | 0hPa | 0V | 00:00:00 | 00:00:00 | 00:00:00 | |
| RDZ2B | 2026-09-05 12:38:16 | 41.76286 | 8.94147 | 274° | 44km/h | 24324m | 8.4m/s | 0°C | 0% | 0hPa | 0V | 00:00:00 | 00:00:00 | 00:00:00 | |
| RDZBGO | 2026-09-05 12:38:14 | 41.76296 | 8.94170 | 203° | 37km/h | 24312m | 1.6m/s | 0°C | 0% | 0hPa | 0V | 00:00:00 | 00:00:00 | 00:00:00 | |
| RDZ2B | 2026-09-05 12:37:55 | 41.76322 | 8.94227 | 18° | 16km/h | 24209m | 4.0m/s | 0°C | 0% | 0hPa | 0V | 00:00:00 | 00:00:00 | 00:00:00 | |
| RDZBGO | 2026-09-05 12:37:53 | 41.76318 | 8.94234 | 256° | 22km/h | 24199m | 7.0m/s | 0°C | 0% | 0hPa | 0V | 00:00:00 | 00:00:00 | 00:00:00 | |
| IW2NTF | 2026-09-05 12:37:45 | 41.76337 | 8.94265 | 317° | 4km/h | 24114m | 5.4m/s | 0°C | 0% | 0hPa | 0V | 00:00:00 | 00:00:00 | 00:00:00 | |
| RDZ2B | 2026-09-05 12:37:35 | 41.76332 | 8.94264 | 14° | 13km/h | 24103m | 3.5m/s | 0°C | 0% | 0hPa | 0V | 00:00:00 | 00:00:00 | 00:00:00 | |
| IW2NTF | 2026-09-05 12:37:34 | 41.76318 | 8.94258 | 339° | 27km/h | 24065m | 1.5m/s | 0°C | 0% | 0hPa | 0V | 00:00:00 | 00:00:00 | 00:00:00 | |
| RDZBGO | 2026-09-05 12:37:33 | 41.76330 | 8.94264 | 191° | 5km/h | 24094m | 7.1m/s | 0°C | 0% | 0hPa | 0V | 00:00:00 | 00:00:00 | 00:00:00 | |
| RDZ2B | 2026-09-05 12:37:15 | 41.76295 | 8.94262 | 91° | 20km/h | 24000m | 5.7m/s | 0°C | 0% | 0hPa | 0V | 00:00:00 | 00:00:00 | 00:00:00 | |
| IW2NTF | 2026-09-05 12:37:11 | 41.76260 | 8.94246 | 318° | 16km/h | 23944m | 5.9m/s | 0°C | 0% | 0hPa | 0V | 00:00:00 | 00:00:00 | 00:00:00 | |
| RDZ2B | 2026-09-05 12:36:53 | 41.76236 | 8.94244 | 298° | 18km/h | 23889m | 7.2m/s | 0°C | 0% | 0hPa | 0V | 00:00:00 | 00:00:00 | 00:00:00 | |
| RDZBGO | 2026-09-05 12:36:51 | 41.76238 | 8.94252 | 157° | 11km/h | 23880m | 1.9m/s | 0°C | 0% | 0hPa | 0V | 00:00:00 | 00:00:00 | 00:00:00 | |
| IW2NTF | 2026-09-05 12:36:45 | 41.76183 | 8.94226 | 336° | 47km/h | 23819m | 4.9m/s | 0°C | 0% | 0hPa | 0V | 00:00:00 | 00:00:00 | 00:00:00 | |
| RDZ2B | 2026-09-05 12:36:30 | 41.76133 | 8.94230 | 290° | 26km/h | 23775m | 0.0m/s | 0°C | 0% | 0hPa | 0V | 00:00:00 | 00:00:00 | 00:00:00 | |
| RDZBGO | 2026-09-05 12:36:29 | 41.76132 | 8.94235 | 274° | 4km/h | 23773m | 4.4m/s | 0°C | 0% | 0hPa | 0V | 00:00:00 | 00:00:00 | 00:00:00 | |
| RDZ2B | 2026-09-05 12:36:09 | 41.75980 | 8.94236 | 320° | 55km/h | 23674m | 7.3m/s | 0°C | 0% | 0hPa | 0V | 00:00:00 | 00:00:00 | 00:00:00 | |
| RDZBGO | 2026-09-05 12:36:07 | 41.75974 | 8.94260 | 243° | 24km/h | 23663m | 3.8m/s | 0°C | 0% | 0hPa | 0V | 00:00:00 | 00:00:00 | 00:00:00 | |
| RDZBGO | 2026-09-05 12:35:46 | 41.75853 | 8.94358 | 278° | 49km/h | 23557m | 4.2m/s | 0°C | 0% | 0hPa | 0V | 00:00:00 | 00:00:00 | 00:00:00 | |
| IW2NTF | 2026-09-05 12:35:42 | 41.75832 | 8.94401 | 285° | 38km/h | 23520m | 4.2m/s | 0°C | 0% | 0hPa | 0V | 00:00:00 | 00:00:00 | 00:00:00 | |
| RDZBGO | 2026-09-05 12:35:26 | 41.75802 | 8.94477 | 303° | 33km/h | 23453m | 6.7m/s | 0°C | 0% | 0hPa | 0V | 00:00:00 | 00:00:00 | 00:00:00 | |
| IW2NTF | 2026-09-05 12:35:24 | 41.75786 | 8.94509 | 327° | 4km/h | 23428m | 3.5m/s | 0°C | 0% | 0hPa | 0V | 00:00:00 | 00:00:00 | 00:00:00 | |
| RDZ2B | 2026-09-05 12:35:20 | 41.75785 | 8.94512 | 295° | 13km/h | 23424m | 5.1m/s | 0°C | 0% | 0hPa | 0V | 00:00:00 | 00:00:00 | 00:00:00 | |
| RDZBGO | 2026-09-05 12:35:05 | 41.75750 | 8.94588 | 292° | 22km/h | 23344m | 6.4m/s | 0°C | 0% | 0hPa | 0V | 00:00:00 | 00:00:00 | 00:00:00 | |
| IW2NTF | 2026-09-05 12:35:04 | 41.75739 | 8.94608 | 345° | 9km/h | 23322m | 4.5m/s | 0°C | 0% | 0hPa | 0V | 00:00:00 | 00:00:00 | 00:00:00 | |
| IW2NTF | 2026-09-05 12:34:52 | 41.75680 | 8.94658 | 353° | 15km/h | 23247m | 5.2m/s | 0°C | 0% | 0hPa | 0V | 00:00:00 | 00:00:00 | 00:00:00 | |
| RDZBGO | 2026-09-05 12:34:44 | 41.75675 | 8.94671 | 282° | 35km/h | 23234m | 5.2m/s | 0°C | 0% | 0hPa | 0V | 00:00:00 | 00:00:00 | 00:00:00 | |
| RDZBGO | 2026-09-05 12:34:24 | 41.75595 | 8.94763 | 318° | 27km/h | 23131m | 5.5m/s | 0°C | 0% | 0hPa | 0V | 00:00:00 | 00:00:00 | 00:00:00 | |
| RDZBGO | 2026-09-05 12:34:04 | 41.75543 | 8.94867 | 241° | 11km/h | 23031m | 6.1m/s | 0°C | 0% | 0hPa | 0V | 00:00:00 | 00:00:00 | 00:00:00 | |
| RDZBGO | 2026-09-05 12:33:43 | 41.75524 | 8.95012 | 264° | 31km/h | 22917m | 4.8m/s | 0°C | 0% | 0hPa | 0V | 00:00:00 | 00:00:00 | 00:00:00 | |
| IW2NTF | 2026-09-05 12:33:42 | 41.75520 | 8.95037 | 262° | 11km/h | 22897m | 5.1m/s | 0°C | 0% | 0hPa | 0V | 00:00:00 | 00:00:00 | 00:00:00 | |
| RDZBGO | 2026-09-05 12:33:22 | 41.75559 | 8.95141 | 105° | 7km/h | 22808m | 8.0m/s | 0°C | 0% | 0hPa | 0V | 00:00:00 | 00:00:00 | 00:00:00 | |
| IW2NTF | 2026-09-05 12:33:12 | 41.75614 | 8.95183 | 233° | 26km/h | 22743m | 5.7m/s | 0°C | 0% | 0hPa | 0V | 00:00:00 | 00:00:00 | 00:00:00 | |
| RDZBGO | 2026-09-05 12:33:01 | 41.75631 | 8.95207 | 101° | 4km/h | 22702m | 5.3m/s | 0°C | 0% | 0hPa | 0V | 00:00:00 | 00:00:00 | 00:00:00 | |
| RDZBGO | 2026-09-05 12:32:41 | 41.75687 | 8.95234 | 222° | 16km/h | 22603m | 5.3m/s | 0°C | 0% | 0hPa | 0V | 00:00:00 | 00:00:00 | 00:00:00 | |
| IW2NTF | 2026-09-05 12:32:32 | 41.75735 | 8.95218 | 47° | 4km/h | 22525m | 3.2m/s | 0°C | 0% | 0hPa | 0V | 00:00:00 | 00:00:00 | 00:00:00 | |
| RDZBGO | 2026-09-05 12:32:20 | 41.75754 | 8.95222 | 93° | 11km/h | 22494m | 4.7m/s | 0°C | 0% | 0hPa | 0V | 00:00:00 | 00:00:00 | 00:00:00 | |
| RDZBGO | 2026-09-05 12:32:00 | 41.75804 | 8.95236 | 117° | 13km/h | 22393m | 7.3m/s | 0°C | 0% | 0hPa | 0V | 00:00:00 | 00:00:00 | 00:00:00 | |
| IW2NTF | 2026-09-05 12:31:51 | 41.75820 | 8.95239 | 192° | 13km/h | 22341m | 5.3m/s | 0°C | 0% | 0hPa | 0V | 00:00:00 | 00:00:00 | 00:00:00 | |
| RDZBGO | 2026-09-05 12:31:40 | 41.75834 | 8.95244 | 85° | 22km/h | 22291m | 3.6m/s | 0°C | 0% | 0hPa | 0V | 00:00:00 | 00:00:00 | 00:00:00 | |
| RDZBGO | 2026-09-05 12:31:19 | 41.75849 | 8.95218 | 304° | 15km/h | 22188m | 7.0m/s | 0°C | 0% | 0hPa | 0V | 00:00:00 | 00:00:00 | 00:00:00 | |
| RDZ2B | 2026-09-05 12:31:08 | 41.75849 | 8.95233 | 86° | 4km/h | 22136m | 6.9m/s | 0°C | 0% | 0hPa | 0V | 00:00:00 | 00:00:00 | 00:00:00 | |
| RDZBGO | 2026-09-05 12:30:59 | 41.75845 | 8.95228 | 51° | 7km/h | 22091m | 4.0m/s | 0°C | 0% | 0hPa | 0V | 00:00:00 | 00:00:00 | 00:00:00 | |
| IW2NTF | 2026-09-05 12:30:39 | 41.75801 | 8.95294 | 295° | 16km/h | 21986m | 5.7m/s | 0°C | 0% | 0hPa | 0V | 00:00:00 | 00:00:00 | 00:00:00 | |
| RDZBGO | 2026-09-05 12:30:39 | 41.75803 | 8.95289 | 303° | 13km/h | 21992m | 4.7m/s | 0°C | 0% | 0hPa | 0V | 00:00:00 | 00:00:00 | 00:00:00 | |
| RDZ2B | 2026-09-05 12:30:35 | 41.75796 | 8.95314 | 289° | 18km/h | 21973m | 5.3m/s | 0°C | 0% | 0hPa | 0V | 00:00:00 | 00:00:00 | 00:00:00 | |
| IW2NTF | 2026-09-05 12:30:30 | 41.75783 | 8.95374 | 280° | 26km/h | 21923m | 5.8m/s | 0°C | 0% | 0hPa | 0V | 00:00:00 | 00:00:00 | 00:00:00 | |
| IW2NTF | 2026-09-05 12:30:18 | 41.75768 | 8.95467 | 285° | 33km/h | 21855m | 4m/s | 0°C | 0% | 0hPa | 0V | 00:00:00 | 00:00:00 | 00:00:00 | |
| RDZBGO | 2026-09-05 12:29:57 | 41.75776 | 8.95548 | 250° | 13km/h | 21787m | 5.9m/s | 0°C | 0% | 0hPa | 0V | 00:00:00 | 00:00:00 | 00:00:00 | |
| RDZBGO | 2026-09-05 12:29:36 | 41.75808 | 8.95636 | 193° | 16km/h | 21687m | 5.1m/s | 0°C | 0% | 0hPa | 0V | 00:00:00 | 00:00:00 | 00:00:00 | |
| RDZBGO | 2026-09-05 12:29:15 | 41.75838 | 8.95663 | 186° | 9km/h | 21586m | 4.4m/s | 0°C | 0% | 0hPa | 0V | 00:00:00 | 00:00:00 | 00:00:00 | |
| RDZBGO | 2026-09-05 12:28:55 | 41.75860 | 8.95638 | 137° | 26km/h | 21491m | 5.1m/s | 0°C | 0% | 0hPa | 0V | 00:00:00 | 00:00:00 | 00:00:00 | |
| RDZ2B | 2026-09-05 12:28:49 | 41.75860 | 8.95626 | 72° | 13km/h | 21463m | 3.6m/s | 0°C | 0% | 0hPa | 0V | 00:00:00 | 00:00:00 | 00:00:00 | |
| RDZBGO | 2026-09-05 12:28:35 | 41.75864 | 8.95565 | 39° | 13km/h | 21397m | 6.0m/s | 0°C | 0% | 0hPa | 0V | 00:00:00 | 00:00:00 | 00:00:00 | |
| RDZBGO | 2026-09-05 12:28:14 | 41.75813 | 8.95524 | 274° | 9km/h | 21296m | 5.6m/s | 0°C | 0% | 0hPa | 0V | 00:00:00 | 00:00:00 | 00:00:00 | |
| RDZ2B | 2026-09-05 12:28:03 | 41.75785 | 8.95530 | 23° | 16km/h | 21243m | 3.5m/s | 0°C | 0% | 0hPa | 0V | 00:00:00 | 00:00:00 | 00:00:00 | |
| RDZBGO | 2026-09-05 12:27:53 | 41.75769 | 8.95545 | 310° | 2km/h | 21195m | 5.5m/s | 0°C | 0% | 0hPa | 0V | 00:00:00 | 00:00:00 | 00:00:00 | |
| RDZBGO | 2026-09-05 12:27:32 | 41.75724 | 8.95575 | 347° | 13km/h | 21093m | 5.4m/s | 0°C | 0% | 0hPa | 0V | 00:00:00 | 00:00:00 | 00:00:00 | |
| RDZ2B | 2026-09-05 12:27:30 | 41.75720 | 8.95581 | 304° | 15km/h | 21083m | 3.8m/s | 0°C | 0% | 0hPa | 0V | 00:00:00 | 00:00:00 | 00:00:00 | |
| RDZBGO | 2026-09-05 12:27:12 | 41.75657 | 8.95650 | 276° | 11km/h | 20994m | 3.6m/s | 0°C | 0% | 0hPa | 0V | 00:00:00 | 00:00:00 | 00:00:00 | |
| RDZ2B | 2026-09-05 12:27:05 | 41.75636 | 8.95689 | 255° | 18km/h | 20961m | 3.3m/s | 0°C | 0% | 0hPa | 0V | 00:00:00 | 00:00:00 | 00:00:00 | |
| RDZBGO | 2026-09-05 12:26:51 | 41.75605 | 8.95762 | 303° | 16km/h | 20895m | 5.7m/s | 0°C | 0% | 0hPa | 0V | 00:00:00 | 00:00:00 | 00:00:00 | |
| RDZ2B | 2026-09-05 12:26:41 | 41.75592 | 8.95793 | 264° | 9km/h | 20847m | 6.0m/s | 0°C | 0% | 0hPa | 0V | 00:00:00 | 00:00:00 | 00:00:00 | |
| RDZBGO | 2026-09-05 12:26:30 | 41.75583 | 8.95827 | 256° | 11km/h | 20793m | 5.8m/s | 0°C | 0% | 0hPa | 0V | 00:00:00 | 00:00:00 | 00:00:00 | |
| RDZ2B | 2026-09-05 12:26:16 | 41.75558 | 8.95836 | 15° | 5km/h | 20726m | 5.6m/s | 0°C | 0% | 0hPa | 0V | 00:00:00 | 00:00:00 | 00:00:00 | |
| RDZBGO | 2026-09-05 12:26:09 | 41.75532 | 8.95842 | 349° | 18km/h | 20691m | 4.3m/s | 0°C | 0% | 0hPa | 0V | 00:00:00 | 00:00:00 | 00:00:00 | |
| RDZ2B | 2026-09-05 12:25:55 | 41.75473 | 8.95856 | 346° | 27km/h | 20623m | 4.5m/s | 0°C | 0% | 0hPa | 0V | 00:00:00 | 00:00:00 | 00:00:00 | |
| RDZBGO | 2026-09-05 12:25:49 | 41.75445 | 8.95868 | 353° | 29km/h | 20593m | 4.5m/s | 0°C | 0% | 0hPa | 0V | 00:00:00 | 00:00:00 | 00:00:00 | |
| RDZ2B | 2026-09-05 12:25:34 | 41.75401 | 8.95901 | 323° | 16km/h | 20521m | 5.5m/s | 0°C | 0% | 0hPa | 0V | 00:00:00 | 00:00:00 | 00:00:00 | |
| RDZBGO | 2026-09-05 12:25:29 | 41.75391 | 8.95907 | 353° | 4km/h | 20498m | 4.6m/s | 0°C | 0% | 0hPa | 0V | 00:00:00 | 00:00:00 | 00:00:00 | |
| RDZ2B | 2026-09-05 12:25:14 | 41.75365 | 8.95924 | 314° | 9km/h | 20426m | 3.9m/s | 0°C | 0% | 0hPa | 0V | 00:00:00 | 00:00:00 | 00:00:00 | |
| RDZBGO | 2026-09-05 12:25:08 | 41.75362 | 8.95927 | 277° | 7km/h | 20397m | 3.6m/s | 0°C | 0% | 0hPa | 0V | 00:00:00 | 00:00:00 | 00:00:00 | |
| RDZ2B | 2026-09-05 12:24:53 | 41.75321 | 8.95928 | 14° | 7km/h | 20327m | 4.7m/s | 0°C | 0% | 0hPa | 0V | 00:00:00 | 00:00:00 | 00:00:00 | |
| RDZBGO | 2026-09-05 12:24:47 | 41.75300 | 8.95934 | 26° | 31km/h | 20298m | 4.5m/s | 0°C | 0% | 0hPa | 0V | 00:00:00 | 00:00:00 | 00:00:00 | |
| RDZ2B | 2026-09-05 12:24:28 | 41.75225 | 8.95986 | 298° | 22km/h | 20211m | 4.1m/s | 0°C | 0% | 0hPa | 0V | 00:00:00 | 00:00:00 | 00:00:00 | |
| RDZBGO | 2026-09-05 12:24:26 | 41.75216 | 8.95997 | 337° | 29km/h | 20200m | 5.2m/s | 0°C | 0% | 0hPa | 0V | 00:00:00 | 00:00:00 | 00:00:00 | |
| RDZBGO | 2026-09-05 12:24:05 | 41.75156 | 8.96085 | 342° | 9km/h | 20103m | 4.4m/s | 0°C | 0% | 0hPa | 0V | 00:00:00 | 00:00:00 | 00:00:00 | |
| RDZ2B | 2026-09-05 12:24:03 | 41.75154 | 8.96094 | 263° | 24km/h | 20093m | 4.7m/s | 0°C | 0% | 0hPa | 0V | 00:00:00 | 00:00:00 | 00:00:00 | |
| RDZBGO | 2026-09-05 12:23:45 | 41.75140 | 8.96134 | 266° | 11km/h | 20010m | 5.5m/s | 0°C | 0% | 0hPa | 0V | 00:00:00 | 00:00:00 | 00:00:00 | |
| RDZ2B | 2026-09-05 12:23:43 | 41.75142 | 8.96140 | 234° | 5km/h | 20001m | 4.7m/s | 0°C | 0% | 0hPa | 0V | 00:00:00 | 00:00:00 | 00:00:00 | |
| RDZBGO | 2026-09-05 12:23:24 | 41.75167 | 8.96124 | 120° | 15km/h | 19910m | 5.1m/s | 0°C | 0% | 0hPa | 0V | 00:00:00 | 00:00:00 | 00:00:00 | |
| RDZ2B | 2026-09-05 12:23:22 | 41.75168 | 8.96117 | 109° | 7km/h | 19901m | 5.5m/s | 0°C | 0% | 0hPa | 0V | 00:00:00 | 00:00:00 | 00:00:00 | |
| RDZBGO | 2026-09-05 12:23:03 | 41.75179 | 8.96075 | 4° | 11km/h | 19816m | 4.2m/s | 0°C | 0% | 0hPa | 0V | 00:00:00 | 00:00:00 | 00:00:00 | |
| RDZ2B | 2026-09-05 12:23:02 | 41.75177 | 8.96075 | 0° | 0km/h | 19811m | 4.9m/s | 0°C | 0% | 0hPa | 0V | 00:00:00 | 00:00:00 | 00:00:00 | |
| RDZBGO | 2026-09-05 12:22:42 | 41.75180 | 8.96043 | 277° | 4km/h | 19719m | 3.8m/s | 0°C | 0% | 0hPa | 0V | 00:00:00 | 00:00:00 | 00:00:00 | |
| RDZ2B | 2026-09-05 12:22:41 | 41.75179 | 8.96044 | 361° | 7km/h | 19715m | 5.6m/s | 0°C | 0% | 0hPa | 0V | 00:00:00 | 00:00:00 | 00:00:00 | |
| RDZBGO | 2026-09-05 12:22:21 | 41.75154 | 8.96015 | 49° | 22km/h | 19623m | 5.6m/s | 0°C | 0% | 0hPa | 0V | 00:00:00 | 00:00:00 | 00:00:00 | |
| RDZ2B | 2026-09-05 12:22:20 | 41.75151 | 8.96010 | 57° | 22km/h | 19619m | 2.8m/s | 0°C | 0% | 0hPa | 0V | 00:00:00 | 00:00:00 | 00:00:00 | |
| RDZBGO | 2026-09-05 12:22:01 | 41.75164 | 8.95962 | 193° | 9km/h | 19526m | 6.8m/s | 0°C | 0% | 0hPa | 0V | 00:00:00 | 00:00:00 | 00:00:00 | |
| RDZ2B | 2026-09-05 12:22:00 | 41.75164 | 8.95962 | 193° | 9km/h | 19526m | 6.8m/s | 0°C | 0% | 0hPa | 0V | 00:00:00 | 00:00:00 | 00:00:00 | |
| RDZ2B | 2026-09-05 12:21:40 | 41.75190 | 8.95906 | 113° | 18km/h | 19426m | 5.8m/s | 0°C | 0% | 0hPa | 0V | 00:00:00 | 00:00:00 | 00:00:00 | |
| RDZ2B | 2026-09-05 12:21:18 | 41.75190 | 8.95780 | 96° | 15km/h | 19324m | 5.3m/s | 0°C | 0% | 0hPa | 0V | 00:00:00 | 00:00:00 | 00:00:00 | |
| RDZBGO | 2026-09-05 12:20:57 | 41.75160 | 8.95638 | 60° | 31km/h | 19222m | 5.6m/s | 0°C | 0% | 0hPa | 0V | 00:00:00 | 00:00:00 | 00:00:00 | |
| RDZ2B | 2026-09-05 12:20:56 | 41.75156 | 8.95630 | 56° | 31km/h | 19218m | 3.0m/s | 0°C | 0% | 0hPa | 0V | 00:00:00 | 00:00:00 | 00:00:00 | |
| RDZBGO | 2026-09-05 12:20:37 | 41.75124 | 8.95595 | 315° | 13km/h | 19123m | 4.3m/s | 0°C | 0% | 0hPa | 0V | 00:00:00 | 00:00:00 | 00:00:00 | |
| RDZ2B | 2026-09-05 12:20:33 | 41.75124 | 8.95600 | 85° | 5km/h | 19104m | 5.2m/s | 0°C | 0% | 0hPa | 0V | 00:00:00 | 00:00:00 | 00:00:00 | |
| RDZBGO | 2026-09-05 12:20:17 | 41.75137 | 8.95607 | 31° | 2km/h | 19028m | 4.3m/s | 0°C | 0% | 0hPa | 0V | 00:00:00 | 00:00:00 | 00:00:00 | |
| RDZ2B | 2026-09-05 12:20:12 | 41.75150 | 8.95595 | 134° | 16km/h | 19003m | 2.9m/s | 0°C | 0% | 0hPa | 0V | 00:00:00 | 00:00:00 | 00:00:00 | |
| RDZBGO | 2026-09-05 12:19:56 | 41.75188 | 8.95545 | 144° | 22km/h | 18923m | 3.8m/s | 0°C | 0% | 0hPa | 0V | 00:00:00 | 00:00:00 | 00:00:00 | |
| RDZ2B | 2026-09-05 12:19:50 | 41.75207 | 8.95512 | 132° | 22km/h | 18893m | 3.3m/s | 0°C | 0% | 0hPa | 0V | 00:00:00 | 00:00:00 | 00:00:00 | |
| RDZBGO | 2026-09-05 12:19:36 | 41.75237 | 8.95403 | 128° | 15km/h | 18826m | 4.9m/s | 0°C | 0% | 0hPa | 0V | 00:00:00 | 00:00:00 | 00:00:00 | |
| RDZ2B | 2026-09-05 12:19:29 | 41.75249 | 8.95343 | 90° | 27km/h | 18791m | 6.4m/s | 0°C | 0% | 0hPa | 0V | 00:00:00 | 00:00:00 | 00:00:00 | |
| RDZBGO | 2026-09-05 12:19:15 | 41.75254 | 8.95222 | 90° | 38km/h | 18723m | 3.8m/s | 0°C | 0% | 0hPa | 0V | 00:00:00 | 00:00:00 | 00:00:00 | |
| RDZ2B | 2026-09-05 12:19:09 | 41.75248 | 8.95171 | 86° | 38km/h | 18695m | 5.1m/s | 0°C | 0% | 0hPa | 0V | 00:00:00 | 00:00:00 | 00:00:00 | |
| RDZBGO | 2026-09-05 12:18:54 | 41.75201 | 8.95047 | 23° | 24km/h | 18624m | 2.7m/s | 0°C | 0% | 0hPa | 0V | 00:00:00 | 00:00:00 | 00:00:00 | |
| RDZ2B | 2026-09-05 12:18:49 | 41.75190 | 8.95013 | 55° | 16km/h | 18602m | 5.3m/s | 0°C | 0% | 0hPa | 0V | 00:00:00 | 00:00:00 | 00:00:00 | |
| RDZBGO | 2026-09-05 12:18:33 | 41.75151 | 8.94930 | 76° | 16km/h | 18530m | 3.1m/s | 0°C | 0% | 0hPa | 0V | 00:00:00 | 00:00:00 | 00:00:00 | |
| RDZ2B | 2026-09-05 12:18:28 | 41.75138 | 8.94912 | 88° | 24km/h | 18507m | 5.2m/s | 0°C | 0% | 0hPa | 0V | 00:00:00 | 00:00:00 | 00:00:00 | |
| RDZBGO | 2026-09-05 12:18:12 | 41.75126 | 8.94852 | 117° | 4km/h | 18438m | 4.3m/s | 0°C | 0% | 0hPa | 0V | 00:00:00 | 00:00:00 | 00:00:00 | |
| RDZ2B | 2026-09-05 12:18:07 | 41.75134 | 8.94842 | 29° | 4km/h | 18415m | 5.3m/s | 0°C | 0% | 0hPa | 0V | 00:00:00 | 00:00:00 | 00:00:00 | |
| RDZBGO | 2026-09-05 12:17:52 | 41.75134 | 8.94809 | 127° | 11km/h | 18352m | 2.9m/s | 0°C | 0% | 0hPa | 0V | 00:00:00 | 00:00:00 | 00:00:00 | |
| RDZ2B | 2026-09-05 12:17:47 | 41.75137 | 8.94810 | 151° | 11km/h | 18333m | 6.0m/s | 0°C | 0% | 0hPa | 0V | 00:00:00 | 00:00:00 | 00:00:00 | |
| RDZBGO | 2026-09-05 12:17:31 | 41.75169 | 8.94789 | 238° | 9km/h | 18263m | 3.1m/s | 0°C | 0% | 0hPa | 0V | 00:00:00 | 00:00:00 | 00:00:00 | |
| RDZ2B | 2026-09-05 12:17:25 | 41.75188 | 8.94766 | 87° | 9km/h | 18236m | 4.5m/s | 0°C | 0% | 0hPa | 0V | 00:00:00 | 00:00:00 | 00:00:00 | |
| RDZBGO | 2026-09-05 12:17:11 | 41.75204 | 8.94718 | 113° | 11km/h | 18175m | 5.7m/s | 0°C | 0% | 0hPa | 0V | 00:00:00 | 00:00:00 | 00:00:00 | |
| RDZ2B | 2026-09-05 12:17:04 | 41.75213 | 8.94697 | 124° | 16km/h | 18143m | 5.5m/s | 0°C | 0% | 0hPa | 0V | 00:00:00 | 00:00:00 | 00:00:00 | |
| IW2NTF | 2026-09-05 12:16:56 | 41.75234 | 8.94628 | 110° | 22km/h | 18076m | 4.3m/s | 0°C | 0% | 0hPa | 0V | 00:00:00 | 00:00:00 | 00:00:00 | |
| RDZBGO | 2026-09-05 12:16:50 | 41.75232 | 8.94634 | 119° | 20km/h | 18081m | 5.3m/s | 0°C | 0% | 0hPa | 0V | 00:00:00 | 00:00:00 | 00:00:00 | |
| RDZ2B | 2026-09-05 12:16:39 | 41.75268 | 8.94568 | 139° | 37km/h | 18033m | 3.4m/s | 0°C | 0% | 0hPa | 0V | 00:00:00 | 00:00:00 | 00:00:00 | |
| RDZBGO | 2026-09-05 12:16:29 | 41.75307 | 8.94495 | 141° | 26km/h | 17987m | 5.6m/s | 0°C | 0% | 0hPa | 0V | 00:00:00 | 00:00:00 | 00:00:00 | |
| IW2NTF | 2026-09-05 12:16:22 | 41.75352 | 8.94353 | 105° | 44km/h | 17932m | 5.3m/s | 0°C | 0% | 0hPa | 0V | 00:00:00 | 00:00:00 | 00:00:00 | |
| RDZ2B | 2026-09-05 12:16:16 | 41.75352 | 8.94353 | 107° | 44km/h | 17932m | 5.3m/s | 0°C | 0% | 0hPa | 0V | 00:00:00 | 00:00:00 | 00:00:00 | |
| RDZBGO | 2026-09-05 12:16:09 | 41.75381 | 8.94260 | 110° | 42km/h | 17901m | 4.9m/s | 0°C | 0% | 0hPa | 0V | 00:00:00 | 00:00:00 | 00:00:00 | |
| IW2NTF | 2026-09-05 12:16:04 | 41.75410 | 8.94101 | 107° | 37km/h | 17848m | 4.3m/s | 0°C | 0% | 0hPa | 0V | 00:00:00 | 00:00:00 | 00:00:00 | |
| RDZ2B | 2026-09-05 12:15:56 | 41.75412 | 8.94089 | 103° | 37km/h | 17845m | 2.8m/s | 0°C | 0% | 0hPa | 0V | 00:00:00 | 00:00:00 | 00:00:00 | |
| RDZBGO | 2026-09-05 12:15:49 | 41.75418 | 8.93997 | 96° | 46km/h | 17814m | 5.1m/s | 0°C | 0% | 0hPa | 0V | 00:00:00 | 00:00:00 | 00:00:00 | |
| RDZ2B | 2026-09-05 12:15:35 | 41.75401 | 8.93822 | 87° | 42km/h | 17753m | 4.2m/s | 0°C | 0% | 0hPa | 0V | 00:00:00 | 00:00:00 | 00:00:00 | |
| RDZBGO | 2026-09-05 12:15:28 | 41.75393 | 8.93737 | 69° | 31km/h | 17724m | 5.4m/s | 0°C | 0% | 0hPa | 0V | 00:00:00 | 00:00:00 | 00:00:00 | |
| IW2NTF | 2026-09-05 12:15:26 | 41.75390 | 8.93694 | 81° | 38km/h | 17705m | 4.2m/s | 0°C | 0% | 0hPa | 0V | 00:00:00 | 00:00:00 | 00:00:00 | |
| RDZ2B | 2026-09-05 12:15:15 | 41.75375 | 8.93601 | 90° | 31km/h | 17665m | 3.9m/s | 0°C | 0% | 0hPa | 0V | 00:00:00 | 00:00:00 | 00:00:00 | |
| RDZBGO | 2026-09-05 12:15:08 | 41.75355 | 8.93532 | 83° | 35km/h | 17633m | 4.8m/s | 0°C | 0% | 0hPa | 0V | 00:00:00 | 00:00:00 | 00:00:00 | |
| IW2NTF | 2026-09-05 12:15:06 | 41.75347 | 8.93496 | 51° | 18km/h | 17615m | 3.8m/s | 0°C | 0% | 0hPa | 0V | 00:00:00 | 00:00:00 | 00:00:00 | |
| IW2NTF | 2026-09-05 12:14:53 | 41.75302 | 8.93367 | 54° | 24km/h | 17534m | 5.9m/s | 0°C | 0% | 0hPa | 0V | 00:00:00 | 00:00:00 | 00:00:00 | |
| RDZBGO | 2026-09-05 12:14:47 | 41.75305 | 8.93373 | 76° | 20km/h | 17539m | 3.4m/s | 0°C | 0% | 0hPa | 0V | 00:00:00 | 00:00:00 | 00:00:00 | |
| IW2NTF | 2026-09-05 12:14:37 | 41.75275 | 8.93276 | 58° | 16km/h | 17463m | 5.3m/s | 0°C | 0% | 0hPa | 0V | 00:00:00 | 00:00:00 | 00:00:00 | |
| RDZ2B | 2026-09-05 12:14:32 | 41.75277 | 8.93294 | 94° | 33km/h | 17471m | 4.0m/s | 0°C | 0% | 0hPa | 0V | 00:00:00 | 00:00:00 | 00:00:00 | |
| RDZBGO | 2026-09-05 12:14:26 | 41.75266 | 8.93275 | 67° | 13km/h | 17443m | 6.2m/s | 0°C | 0% | 0hPa | 0V | 00:00:00 | 00:00:00 | 00:00:00 | |
| IW2NTF | 2026-09-05 12:14:17 | 41.75251 | 8.93237 | 321° | 13km/h | 17388m | 4.2m/s | 0°C | 0% | 0hPa | 0V | 00:00:00 | 00:00:00 | 00:00:00 | |
| RDZ2B | 2026-09-05 12:14:11 | 41.75245 | 8.93229 | 106° | 24km/h | 17369m | 4.3m/s | 0°C | 0% | 0hPa | 0V | 00:00:00 | 00:00:00 | 00:00:00 | |
| RDZBGO | 2026-09-05 12:14:06 | 41.75248 | 8.93215 | 48° | 18km/h | 17341m | 5.4m/s | 0°C | 0% | 0hPa | 0V | 00:00:00 | 00:00:00 | 00:00:00 | |
| IW2NTF | 2026-09-05 12:14:05 | 41.75246 | 8.93198 | 143° | 16km/h | 17326m | 6.6m/s | 0°C | 0% | 0hPa | 0V | 00:00:00 | 00:00:00 | 00:00:00 | |
| IW2NTF | 2026-09-05 12:13:55 | 41.75266 | 8.93152 | 89° | 20km/h | 17276m | 5.4m/s | 0°C | 0% | 0hPa | 0V | 00:00:00 | 00:00:00 | 00:00:00 | |
| RDZ2B | 2026-09-05 12:13:49 | 41.75274 | 8.93123 | 133° | 27km/h | 17257m | 3.0m/s | 0°C | 0% | 0hPa | 0V | 00:00:00 | 00:00:00 | 00:00:00 | |
| RDZBGO | 2026-09-05 12:13:46 | 41.75280 | 8.93098 | 91° | 29km/h | 17242m | 4.0m/s | 0°C | 0% | 0hPa | 0V | 00:00:00 | 00:00:00 | 00:00:00 | |
| IW2NTF | 2026-09-05 12:13:45 | 41.75297 | 8.93057 | 114° | 29km/h | 17219m | 5.5m/s | 0°C | 0% | 0hPa | 0V | 00:00:00 | 00:00:00 | 00:00:00 | |
| IW2NTF | 2026-09-05 12:13:35 | 41.75332 | 8.92962 | 105° | 24km/h | 17161m | 4.8m/s | 0°C | 0% | 0hPa | 0V | 00:00:00 | 00:00:00 | 00:00:00 | |
| RDZ2B | 2026-09-05 12:13:27 | 41.75337 | 8.92949 | 132° | 20km/h | 17153m | 5.9m/s | 0°C | 0% | 0hPa | 0V | 00:00:00 | 00:00:00 | 00:00:00 | |
| RDZBGO | 2026-09-05 12:13:25 | 41.75345 | 8.92939 | 138° | 24km/h | 17143m | 4.5m/s | 0°C | 0% | 0hPa | 0V | 00:00:00 | 00:00:00 | 00:00:00 | |
| IW2NTF | 2026-09-05 12:13:14 | 41.75376 | 8.92835 | 91° | 16km/h | 17060m | 5.9m/s | 0°C | 0% | 0hPa | 0V | 00:00:00 | 00:00:00 | 00:00:00 | |
| RDZ2B | 2026-09-05 12:13:07 | 41.75375 | 8.92829 | 81° | 20km/h | 17055m | 4.3m/s | 0°C | 0% | 0hPa | 0V | 00:00:00 | 00:00:00 | 00:00:00 | |
| RDZBGO | 2026-09-05 12:13:04 | 41.75379 | 8.92814 | 141° | 16km/h | 17040m | 3.6m/s | 0°C | 0% | 0hPa | 0V | 00:00:00 | 00:00:00 | 00:00:00 | |
| IW2NTF | 2026-09-05 12:12:56 | 41.75407 | 8.92761 | 145° | 16km/h | 16967m | 5.5m/s | 0°C | 0% | 0hPa | 0V | 00:00:00 | 00:00:00 | 00:00:00 | |
| RDZ2B | 2026-09-05 12:12:47 | 41.75415 | 8.92755 | 157° | 16km/h | 16959m | 3.3m/s | 0°C | 0% | 0hPa | 0V | 00:00:00 | 00:00:00 | 00:00:00 | |
| RDZBGO | 2026-09-05 12:12:44 | 41.75419 | 8.92749 | 109° | 4km/h | 16944m | 3.9m/s | 0°C | 0% | 0hPa | 0V | 00:00:00 | 00:00:00 | 00:00:00 | |
| RDZ2B | 2026-09-05 12:12:25 | 41.75469 | 8.92731 | 178° | 22km/h | 16860m | 4.3m/s | 0°C | 0% | 0hPa | 0V | 00:00:00 | 00:00:00 | 00:00:00 | |
| RDZBGO | 2026-09-05 12:12:23 | 41.75478 | 8.92729 | 160° | 15km/h | 16852m | 5.2m/s | 0°C | 0% | 0hPa | 0V | 00:00:00 | 00:00:00 | 00:00:00 | |
| RDZ2B | 2026-09-05 12:12:04 | 41.75543 | 8.92684 | 148° | 20km/h | 16767m | 4.7m/s | 0°C | 0% | 0hPa | 0V | 00:00:00 | 00:00:00 | 00:00:00 | |
| RDZBGO | 2026-09-05 12:12:03 | 41.75548 | 8.92680 | 156° | 24km/h | 16762m | 4.9m/s | 0°C | 0% | 0hPa | 0V | 00:00:00 | 00:00:00 | 00:00:00 | |
| RDZ2B | 2026-09-05 12:11:43 | 41.75636 | 8.92603 | 155° | 26km/h | 16677m | 4.7m/s | 0°C | 0% | 0hPa | 0V | 00:00:00 | 00:00:00 | 00:00:00 | |
| RDZBGO | 2026-09-05 12:11:42 | 41.75641 | 8.92599 | 138° | 20km/h | 16672m | 5.3m/s | 0°C | 0% | 0hPa | 0V | 00:00:00 | 00:00:00 | 00:00:00 | |
| RDZ2B | 2026-09-05 12:11:23 | 41.75731 | 8.92494 | 123° | 31km/h | 16593m | 2.7m/s | 0°C | 0% | 0hPa | 0V | 00:00:00 | 00:00:00 | 00:00:00 | |
| RDZBGO | 2026-09-05 12:11:22 | 41.75735 | 8.92487 | 127° | 24km/h | 16589m | 4.8m/s | 0°C | 0% | 0hPa | 0V | 00:00:00 | 00:00:00 | 00:00:00 | |
| RDZ2B | 2026-09-05 12:11:03 | 41.75812 | 8.92371 | 145° | 27km/h | 16509m | 2.9m/s | 0°C | 0% | 0hPa | 0V | 00:00:00 | 00:00:00 | 00:00:00 | |
| RDZBGO | 2026-09-05 12:11:01 | 41.75820 | 8.92360 | 122° | 20km/h | 16500m | 4.5m/s | 0°C | 0% | 0hPa | 0V | 00:00:00 | 00:00:00 | 00:00:00 | |
| RDZBGO | 2026-09-05 12:10:40 | 41.75897 | 8.92212 | 140° | 37km/h | 16412m | 3.5m/s | 0°C | 0% | 0hPa | 0V | 00:00:00 | 00:00:00 | 00:00:00 | |
| RDZBGO | 2026-09-05 12:10:20 | 41.75971 | 8.92056 | 112° | 26km/h | 16328m | 3.6m/s | 0°C | 0% | 0hPa | 0V | 00:00:00 | 00:00:00 | 00:00:00 | |
| RDZ2B | 2026-09-05 12:10:18 | 41.75979 | 8.92040 | 133° | 29km/h | 16319m | 4.8m/s | 0°C | 0% | 0hPa | 0V | 00:00:00 | 00:00:00 | 00:00:00 | |
| RDZBGO | 2026-09-05 12:09:59 | 41.76052 | 8.91901 | 126° | 27km/h | 16243m | 5.0m/s | 0°C | 0% | 0hPa | 0V | 00:00:00 | 00:00:00 | 00:00:00 | |
| RDZ2B | 2026-09-05 12:09:57 | 41.76059 | 8.91881 | 109° | 33km/h | 16235m | 3.6m/s | 0°C | 0% | 0hPa | 0V | 00:00:00 | 00:00:00 | 00:00:00 | |
| RDZBGO | 2026-09-05 12:09:38 | 41.76095 | 8.91745 | 111° | 24km/h | 16156m | 4.3m/s | 0°C | 0% | 0hPa | 0V | 00:00:00 | 00:00:00 | 00:00:00 | |
| RDZ2B | 2026-09-05 12:09:36 | 41.76100 | 8.91731 | 119° | 27km/h | 16148m | 3.8m/s | 0°C | 0% | 0hPa | 0V | 00:00:00 | 00:00:00 | 00:00:00 | |
| RDZBGO | 2026-09-05 12:09:17 | 41.76148 | 8.91562 | 101° | 26km/h | 16072m | 4.2m/s | 0°C | 0% | 0hPa | 0V | 00:00:00 | 00:00:00 | 00:00:00 | |
| RDZ2B | 2026-09-05 12:09:16 | 41.76149 | 8.91553 | 95° | 27km/h | 16069m | 2.6m/s | 0°C | 0% | 0hPa | 0V | 00:00:00 | 00:00:00 | 00:00:00 | |
| RDZ2B | 2026-09-05 12:08:56 | 41.76160 | 8.91322 | 85° | 42km/h | 15988m | 3.0m/s | 0°C | 0% | 0hPa | 0V | 00:00:00 | 00:00:00 | 00:00:00 | |
| RDZBGO | 2026-09-05 12:08:35 | 41.76140 | 8.91073 | 67° | 31km/h | 15902m | 2.9m/s | 0°C | 0% | 0hPa | 0V | 00:00:00 | 00:00:00 | 00:00:00 | |
| RDZ2B | 2026-09-05 12:08:33 | 41.76136 | 8.91053 | 87° | 31km/h | 15894m | 4.4m/s | 0°C | 0% | 0hPa | 0V | 00:00:00 | 00:00:00 | 00:00:00 | |
| RDZBGO | 2026-09-05 12:08:15 | 41.76107 | 8.90892 | 101° | 20km/h | 15821m | 4.1m/s | 0°C | 0% | 0hPa | 0V | 00:00:00 | 00:00:00 | 00:00:00 | |
| RDZ2B | 2026-09-05 12:08:12 | 41.76106 | 8.90869 | 89° | 27km/h | 15808m | 4.9m/s | 0°C | 0% | 0hPa | 0V | 00:00:00 | 00:00:00 | 00:00:00 | |
| RDZBGO | 2026-09-05 12:07:54 | 41.76098 | 8.90725 | 82° | 29km/h | 15738m | 4.0m/s | 0°C | 0% | 0hPa | 0V | 00:00:00 | 00:00:00 | 00:00:00 | |
| RDZ2B | 2026-09-05 12:07:52 | 41.76099 | 8.90711 | 126° | 13km/h | 15730m | 3.7m/s | 0°C | 0% | 0hPa | 0V | 00:00:00 | 00:00:00 | 00:00:00 | |
| RDZBGO | 2026-09-05 12:07:35 | 41.76132 | 8.90595 | 169° | 7km/h | 15653m | 3.7m/s | 0°C | 0% | 0hPa | 0V | 00:00:00 | 00:00:00 | 00:00:00 | |
| RDZ2B | 2026-09-05 12:07:31 | 41.76136 | 8.90592 | 132° | 13km/h | 15646m | 4.0m/s | 0°C | 0% | 0hPa | 0V | 00:00:00 | 00:00:00 | 00:00:00 | |
| RDZBGO | 2026-09-05 12:07:13 | 41.76201 | 8.90479 | 133° | 33km/h | 15569m | 5.2m/s | 0°C | 0% | 0hPa | 0V | 00:00:00 | 00:00:00 | 00:00:00 | |
| RDZ2B | 2026-09-05 12:07:11 | 41.76210 | 8.90458 | 110° | 31km/h | 15560m | 4.3m/s | 0°C | 0% | 0hPa | 0V | 00:00:00 | 00:00:00 | 00:00:00 | |
| RDZBGO | 2026-09-05 12:06:52 | 41.76249 | 8.90330 | 131° | 15km/h | 15481m | 3.8m/s | 0°C | 0% | 0hPa | 0V | 00:00:00 | 00:00:00 | 00:00:00 | |
| RDZ2B | 2026-09-05 12:06:50 | 41.76254 | 8.90317 | 117° | 29km/h | 15472m | 4.3m/s | 0°C | 0% | 0hPa | 0V | 00:00:00 | 00:00:00 | 00:00:00 | |
| RDZBGO | 2026-09-05 12:06:31 | 41.76287 | 8.90199 | 119° | 20km/h | 15392m | 5.0m/s | 0°C | 0% | 0hPa | 0V | 00:00:00 | 00:00:00 | 00:00:00 | |
| RDZ2B | 2026-09-05 12:06:29 | 41.76290 | 8.90191 | 96° | 13km/h | 15384m | 2.1m/s | 0°C | 0% | 0hPa | 0V | 00:00:00 | 00:00:00 | 00:00:00 | |
| IW2NTF | 2026-09-05 12:06:12 | 41.76316 | 8.90024 | 115° | 26km/h | 15293m | 4.7m/s | 0°C | 0% | 0hPa | 0V | 00:00:00 | 00:00:00 | 00:00:00 | |
| RDZBGO | 2026-09-05 12:06:11 | 41.76311 | 8.90060 | 95° | 29km/h | 15309m | 4.3m/s | 0°C | 0% | 0hPa | 0V | 00:00:00 | 00:00:00 | 00:00:00 | |
| RDZ2B | 2026-09-05 12:06:08 | 41.76313 | 8.90032 | 110° | 26km/h | 15297m | 3.6m/s | 0°C | 0% | 0hPa | 0V | 00:00:00 | 00:00:00 | 00:00:00 | |
| RDZ2B | 2026-09-05 12:05:46 | 41.76338 | 8.89841 | 100° | 13km/h | 15204m | 2.7m/s | 0°C | 0% | 0hPa | 0V | 00:00:00 | 00:00:00 | 00:00:00 | |
| RDZBGO | 2026-09-05 12:05:30 | 41.76370 | 8.89701 | 104° | 26km/h | 15142m | 4.0m/s | 0°C | 0% | 0hPa | 0V | 00:00:00 | 00:00:00 | 00:00:00 | |
| RDZ2B | 2026-09-05 12:05:23 | 41.76384 | 8.89629 | 131° | 26km/h | 15117m | 4.0m/s | 0°C | 0% | 0hPa | 0V | 00:00:00 | 00:00:00 | 00:00:00 | |
| RDZBGO | 2026-09-05 12:05:09 | 41.76412 | 8.89495 | 113° | 29km/h | 15061m | 5.0m/s | 0°C | 0% | 0hPa | 0V | 00:00:00 | 00:00:00 | 00:00:00 | |
| RDZ2B | 2026-09-05 12:05:02 | 41.76430 | 8.89432 | 109° | 27km/h | 15032m | 3.8m/s | 0°C | 0% | 0hPa | 0V | 00:00:00 | 00:00:00 | 00:00:00 | |
| RDZBGO | 2026-09-05 12:04:48 | 41.76463 | 8.89314 | 123° | 31km/h | 14974m | 3.6m/s | 0°C | 0% | 0hPa | 0V | 00:00:00 | 00:00:00 | 00:00:00 | |
| RDZ2B | 2026-09-05 12:04:40 | 41.76491 | 8.89252 | 120° | 22km/h | 14941m | 4.0m/s | 0°C | 0% | 0hPa | 0V | 00:00:00 | 00:00:00 | 00:00:00 | |
| RDZBGO | 2026-09-05 12:04:28 | 41.76527 | 8.89173 | 128° | 22km/h | 14894m | 4.8m/s | 0°C | 0% | 0hPa | 0V | 00:00:00 | 00:00:00 | 00:00:00 | |
| RDZ2B | 2026-09-05 12:04:20 | 41.76560 | 8.89112 | 127° | 35km/h | 14862m | 4.7m/s | 0°C | 0% | 0hPa | 0V | 00:00:00 | 00:00:00 | 00:00:00 | |
| RDZBGO | 2026-09-05 12:04:07 | 41.76625 | 8.89013 | 130° | 31km/h | 14813m | 5.6m/s | 0°C | 0% | 0hPa | 0V | 00:00:00 | 00:00:00 | 00:00:00 | |
| RDZ2B | 2026-09-05 12:03:59 | 41.76669 | 8.88943 | 139° | 33km/h | 14780m | 4.7m/s | 0°C | 0% | 0hPa | 0V | 00:00:00 | 00:00:00 | 00:00:00 | |
| RDZBGO | 2026-09-05 12:03:46 | 41.76741 | 8.88830 | 136° | 42km/h | 14729m | 4.5m/s | 0°C | 0% | 0hPa | 0V | 00:00:00 | 00:00:00 | 00:00:00 | |
| RDZ2B | 2026-09-05 12:03:38 | 41.76794 | 8.88748 | 133° | 42km/h | 14700m | 4.2m/s | 0°C | 0% | 0hPa | 0V | 00:00:00 | 00:00:00 | 00:00:00 | |
| RDZBGO | 2026-09-05 12:03:25 | 41.76879 | 8.88617 | 119° | 38km/h | 14648m | 3.8m/s | 0°C | 0% | 0hPa | 0V | 00:00:00 | 00:00:00 | 00:00:00 | |
| RDZ2B | 2026-09-05 12:03:18 | 41.76923 | 8.88553 | 117° | 40km/h | 14623m | 2.7m/s | 0°C | 0% | 0hPa | 0V | 00:00:00 | 00:00:00 | 00:00:00 | |
| RDZBGO | 2026-09-05 12:03:04 | 41.77011 | 8.88406 | 147° | 33km/h | 14572m | 3.3m/s | 0°C | 0% | 0hPa | 0V | 00:00:00 | 00:00:00 | 00:00:00 | |
| RDZBGO | 2026-09-05 12:02:44 | 41.77128 | 8.88170 | 113° | 46km/h | 14496m | 3.4m/s | 0°C | 0% | 0hPa | 0V | 00:00:00 | 00:00:00 | 00:00:00 | |
| RDZ2B | 2026-09-05 12:02:37 | 41.77179 | 8.88072 | 125° | 60km/h | 14468m | 2.6m/s | 0°C | 0% | 0hPa | 0V | 00:00:00 | 00:00:00 | 00:00:00 | |
| RDZBGO | 2026-09-05 12:02:24 | 41.77260 | 8.87904 | 132° | 49km/h | 14422m | 2.2m/s | 0°C | 0% | 0hPa | 0V | 00:00:00 | 00:00:00 | 00:00:00 | |
| RDZ2B | 2026-09-05 12:02:15 | 41.77306 | 8.87788 | 104° | 35km/h | 14386m | 4.9m/s | 0°C | 0% | 0hPa | 0V | 00:00:00 | 00:00:00 | 00:00:00 | |
| RDZBGO | 2026-09-05 12:02:03 | 41.77349 | 8.87676 | 108° | 35km/h | 14342m | 4.9m/s | 0°C | 0% | 0hPa | 0V | 00:00:00 | 00:00:00 | 00:00:00 | |
| RDZ2B | 2026-09-05 12:01:54 | 41.77376 | 8.87590 | 135° | 29km/h | 14308m | 4.0m/s | 0°C | 0% | 0hPa | 0V | 00:00:00 | 00:00:00 | 00:00:00 | |
| RDZBGO | 2026-09-05 12:01:42 | 41.77406 | 8.87502 | 115° | 20km/h | 14260m | 3.7m/s | 0°C | 0% | 0hPa | 0V | 00:00:00 | 00:00:00 | 00:00:00 | |
| RDZ2B | 2026-09-05 12:01:34 | 41.77421 | 8.87452 | 98° | 24km/h | 14228m | 2.9m/s | 0°C | 0% | 0hPa | 0V | 00:00:00 | 00:00:00 | 00:00:00 | |
| RDZBGO | 2026-09-05 12:01:22 | 41.77440 | 8.87386 | 116° | 16km/h | 14180m | 4.9m/s | 0°C | 0% | 0hPa | 0V | 00:00:00 | 00:00:00 | 00:00:00 | |
| RDZ2B | 2026-09-05 12:01:09 | 41.77450 | 8.87338 | 131° | 9km/h | 14126m | 5.0m/s | 0°C | 0% | 0hPa | 0V | 00:00:00 | 00:00:00 | 00:00:00 | |
| RDZBGO | 2026-09-05 12:01:01 | 41.77465 | 8.87320 | 98° | 13km/h | 14093m | 5.8m/s | 0°C | 0% | 0hPa | 0V | 00:00:00 | 00:00:00 | 00:00:00 | |
| RDZ2B | 2026-09-05 12:00:40 | 41.77495 | 8.87244 | 120° | 13km/h | 14003m | 3.5m/s | 0°C | 0% | 0hPa | 0V | 00:00:00 | 00:00:00 | 00:00:00 | |
| RDZ2B | 2026-09-05 12:00:19 | 41.77514 | 8.87139 | 99° | 18km/h | 13915m | 3.8m/s | 0°C | 0% | 0hPa | 0V | 00:00:00 | 00:00:00 | 00:00:00 | |
| RDZ2B | 2026-09-05 11:59:57 | 41.77511 | 8.87020 | 83° | 15km/h | 13822m | 4.3m/s | 0°C | 0% | 0hPa | 0V | 00:00:00 | 00:00:00 | 00:00:00 | |
| RDZBGO | 2026-09-05 11:59:37 | 41.77521 | 8.86899 | 83° | 13km/h | 13732m | 3.6m/s | 0°C | 0% | 0hPa | 0V | 00:00:00 | 00:00:00 | 00:00:00 | |
| RDZBGO | 2026-09-05 11:59:17 | 41.77560 | 8.86793 | 158° | 16km/h | 13639m | 4.2m/s | 0°C | 0% | 0hPa | 0V | 00:00:00 | 00:00:00 | 00:00:00 | |
| RDZ2B | 2026-09-05 11:59:06 | 41.77577 | 8.86754 | 133° | 20km/h | 13596m | 4.7m/s | 0°C | 0% | 0hPa | 0V | 00:00:00 | 00:00:00 | 00:00:00 | |
| RDZBGO | 2026-09-05 11:58:55 | 41.77603 | 8.86708 | 136° | 24km/h | 13547m | 4.3m/s | 0°C | 0% | 0hPa | 0V | 00:00:00 | 00:00:00 | 00:00:00 | |
| RDZ2B | 2026-09-05 11:58:43 | 41.77633 | 8.86652 | 128° | 11km/h | 13494m | 4.8m/s | 0°C | 0% | 0hPa | 0V | 00:00:00 | 00:00:00 | 00:00:00 | |
| RDZBGO | 2026-09-05 11:58:33 | 41.77646 | 8.86622 | 217° | 15km/h | 13450m | 5.2m/s | 0°C | 0% | 0hPa | 0V | 00:00:00 | 00:00:00 | 00:00:00 | |
| RDZ2B | 2026-09-05 11:58:20 | 41.77688 | 8.86600 | 144° | 7km/h | 13383m | 6.4m/s | 0°C | 0% | 0hPa | 0V | 00:00:00 | 00:00:00 | 00:00:00 | |
| RDZBGO | 2026-09-05 11:58:12 | 41.77721 | 8.86561 | 159° | 27km/h | 13341m | 3.0m/s | 0°C | 0% | 0hPa | 0V | 00:00:00 | 00:00:00 | 00:00:00 | |
| RDZBGO | 2026-09-05 11:57:52 | 41.77820 | 8.86500 | 173° | 31km/h | 13245m | 7.6m/s | 0°C | 0% | 0hPa | 0V | 00:00:00 | 00:00:00 | 00:00:00 | |
| RDZ2B | 2026-09-05 11:57:40 | 41.77879 | 8.86475 | 135° | 29km/h | 13180m | 5.3m/s | 0°C | 0% | 0hPa | 0V | 00:00:00 | 00:00:00 | 00:00:00 | |
| RDZBGO | 2026-09-05 11:57:30 | 41.77936 | 8.86446 | 193° | 24km/h | 13125m | 4.1m/s | 0°C | 0% | 0hPa | 0V | 00:00:00 | 00:00:00 | 00:00:00 | |
| RDZ2B | 2026-09-05 11:57:20 | 41.77994 | 8.86434 | 193° | 24km/h | 13077m | 4.0m/s | 0°C | 0% | 0hPa | 0V | 00:00:00 | 00:00:00 | 00:00:00 | |
| RDZBGO | 2026-09-05 11:57:10 | 41.78069 | 8.86398 | 145° | 53km/h | 13027m | 5.7m/s | 0°C | 0% | 0hPa | 0V | 00:00:00 | 00:00:00 | 00:00:00 | |
| RDZ2B | 2026-09-05 11:56:59 | 41.78156 | 8.86359 | 195° | 29km/h | 12967m | 0.6m/s | 0°C | 0% | 0hPa | 0V | 00:00:00 | 00:00:00 | 00:00:00 | |
| RDZBGO | 2026-09-05 11:56:50 | 41.78226 | 8.86333 | 163° | 38km/h | 12922m | 6.8m/s | 0°C | 0% | 0hPa | 0V | 00:00:00 | 00:00:00 | 00:00:00 | |
| RDZ2B | 2026-09-05 11:56:33 | 41.78395 | 8.86295 | 167° | 33km/h | 12830m | 6.0m/s | 0°C | 0% | 0hPa | 0V | 00:00:00 | 00:00:00 | 00:00:00 | |
| RDZBGO | 2026-09-05 11:56:29 | 41.78429 | 8.86292 | 181° | 33km/h | 12807m | 4.2m/s | 0°C | 0% | 0hPa | 0V | 00:00:00 | 00:00:00 | 00:00:00 | |
| RDZBGO | 2026-09-05 11:56:09 | 41.78595 | 8.86249 | 194° | 31km/h | 12696m | 7.9m/s | 0°C | 0% | 0hPa | 0V | 00:00:00 | 00:00:00 | 00:00:00 | |
| RDZBGO | 2026-09-05 11:55:48 | 41.78777 | 8.86239 | 206° | 35km/h | 12589m | 5.1m/s | 0°C | 0% | 0hPa | 0V | 00:00:00 | 00:00:00 | 00:00:00 | |
| RDZBGO | 2026-09-05 11:55:28 | 41.78949 | 8.86257 | 208° | 42km/h | 12479m | 4.8m/s | 0°C | 0% | 0hPa | 0V | 00:00:00 | 00:00:00 | 00:00:00 | |
| RDZ2B | 2026-09-05 11:55:20 | 41.79005 | 8.86273 | 185° | 35km/h | 12436m | 10.3m/s | 0°C | 0% | 0hPa | 0V | 00:00:00 | 00:00:00 | 00:00:00 | |
| RDZBGO | 2026-09-05 11:55:07 | 41.79111 | 8.86288 | 197° | 40km/h | 12360m | 4.8m/s | 0°C | 0% | 0hPa | 0V | 00:00:00 | 00:00:00 | 00:00:00 | |
| RDZBGO | 2026-09-05 11:54:46 | 41.79330 | 8.86329 | 197° | 47km/h | 12259m | 2.2m/s | 0°C | 0% | 0hPa | 0V | 00:00:00 | 00:00:00 | 00:00:00 | |
| RDZ2B | 2026-09-05 11:54:30 | 41.79511 | 8.86347 | 185° | 40km/h | 12194m | 2.8m/s | 0°C | 0% | 0hPa | 0V | 00:00:00 | 00:00:00 | 00:00:00 | |
| RDZBGO | 2026-09-05 11:54:26 | 41.79562 | 8.86341 | 182° | 55km/h | 12177m | 1.9m/s | 0°C | 0% | 0hPa | 0V | 00:00:00 | 00:00:00 | 00:00:00 | |
| RDZBGO | 2026-09-05 11:54:04 | 41.79824 | 8.86362 | 194° | 55km/h | 12082m | 3.2m/s | 0°C | 0% | 0hPa | 0V | 00:00:00 | 00:00:00 | 00:00:00 | |
| RDZ2B | 2026-09-05 11:53:58 | 41.79896 | 8.86366 | 182° | 47km/h | 12058m | 4.9m/s | 0°C | 0% | 0hPa | 0V | 00:00:00 | 00:00:00 | 00:00:00 | |
| RDZBGO | 2026-09-05 11:53:43 | 41.80079 | 8.86386 | 185° | 44km/h | 11992m | 4.7m/s | 0°C | 0% | 0hPa | 0V | 00:00:00 | 00:00:00 | 00:00:00 | |
| RDZ2B | 2026-09-05 11:53:23 | 41.80338 | 8.86456 | 205° | 55km/h | 11903m | 6.3m/s | 0°C | 0% | 0hPa | 0V | 00:00:00 | 00:00:00 | 00:00:00 | |
| RDZBGO | 2026-09-05 11:53:03 | 41.80588 | 8.86556 | 190° | 51km/h | 11815m | 4.8m/s | 0°C | 0% | 0hPa | 0V | 00:00:00 | 00:00:00 | 00:00:00 | |
| RDZ2B | 2026-09-05 11:52:57 | 41.80663 | 8.86591 | 202° | 62km/h | 11788m | 3.4m/s | 0°C | 0% | 0hPa | 0V | 00:00:00 | 00:00:00 | 00:00:00 | |
| RDZBGO | 2026-09-05 11:52:42 | 41.80845 | 8.86643 | 188° | 64km/h | 11706m | 4.8m/s | 0°C | 0% | 0hPa | 0V | 00:00:00 | 00:00:00 | 00:00:00 | |
| RDZ2B | 2026-09-05 11:52:33 | 41.80976 | 8.86717 | 216° | 53km/h | 11642m | 6.2m/s | 0°C | 0% | 0hPa | 0V | 00:00:00 | 00:00:00 | 00:00:00 | |
| RDZBGO | 2026-09-05 11:52:21 | 41.81112 | 8.86789 | 192° | 40km/h | 11589m | 3.7m/s | 0°C | 0% | 0hPa | 0V | 00:00:00 | 00:00:00 | 00:00:00 | |
| RDZ2B | 2026-09-05 11:52:07 | 41.81301 | 8.86901 | 214° | 60km/h | 11526m | 4.8m/s | 0°C | 0% | 0hPa | 0V | 00:00:00 | 00:00:00 | 00:00:00 | |
| RDZBGO | 2026-09-05 11:52:00 | 41.81399 | 8.86951 | 206° | 55km/h | 11496m | 5.0m/s | 0°C | 0% | 0hPa | 0V | 00:00:00 | 00:00:00 | 00:00:00 | |
| RDZ2B | 2026-09-05 11:51:46 | 41.81581 | 8.87051 | 190° | 64km/h | 11429m | 7.2m/s | 0°C | 0% | 0hPa | 0V | 00:00:00 | 00:00:00 | 00:00:00 | |
| RDZBGO | 2026-09-05 11:51:39 | 41.81675 | 8.87100 | 206° | 51km/h | 11388m | 4.4m/s | 0°C | 0% | 0hPa | 0V | 00:00:00 | 00:00:00 | 00:00:00 | |
| RDZBGO | 2026-09-05 11:51:19 | 41.81916 | 8.87241 | 208° | 51km/h | 11281m | 6.2m/s | 0°C | 0% | 0hPa | 0V | 00:00:00 | 00:00:00 | 00:00:00 | |
| RDZ2B | 2026-09-05 11:51:13 | 41.81997 | 8.87282 | 206° | 46km/h | 11246m | 5.9m/s | 0°C | 0% | 0hPa | 0V | 00:00:00 | 00:00:00 | 00:00:00 | |
| RDZBGO | 2026-09-05 11:50:58 | 41.82180 | 8.87410 | 191° | 55km/h | 11167m | 7.7m/s | 0°C | 0% | 0hPa | 0V | 00:00:00 | 00:00:00 | 00:00:00 | |
| RDZ2B | 2026-09-05 11:50:43 | 41.82362 | 8.87533 | 195° | 62km/h | 11087m | 6.3m/s | 0°C | 0% | 0hPa | 0V | 00:00:00 | 00:00:00 | 00:00:00 | |
| RDZBGO | 2026-09-05 11:50:37 | 41.82444 | 8.87573 | 211° | 71km/h | 11057m | 8.7m/s | 0°C | 0% | 0hPa | 0V | 00:00:00 | 00:00:00 | 00:00:00 | |
| RDZBGO | 2026-09-05 11:50:17 | 41.82697 | 8.87757 | 207° | 55km/h | 10944m | 9.1m/s | 0°C | 0% | 0hPa | 0V | 00:00:00 | 00:00:00 | 00:00:00 | |
| RDZ2B | 2026-09-05 11:49:56 | 41.82927 | 8.87922 | 195° | 35km/h | 10839m | 6.4m/s | 0°C | 0% | 0hPa | 0V | 00:00:00 | 00:00:00 | 00:00:00 | |
| RDZBGO | 2026-09-05 11:49:36 | 41.83167 | 8.88090 | 197° | 53km/h | 10735m | 8.8m/s | 0°C | 0% | 0hPa | 0V | 00:00:00 | 00:00:00 | 00:00:00 | |
| RDZ2B | 2026-09-05 11:49:31 | 41.83200 | 8.88117 | 228° | 46km/h | 10712m | 5.2m/s | 0°C | 0% | 0hPa | 0V | 00:00:00 | 00:00:00 | 00:00:00 | |
| RDZBGO | 2026-09-05 11:49:15 | 41.83367 | 8.88243 | 234° | 60km/h | 10623m | 4.4m/s | 0°C | 0% | 0hPa | 0V | 00:00:00 | 00:00:00 | 00:00:00 | |
| RDZBGO | 2026-09-05 11:48:54 | 41.83588 | 8.88420 | 213° | 49km/h | 10527m | 4.2m/s | 0°C | 0% | 0hPa | 0V | 00:00:00 | 00:00:00 | 00:00:00 | |
| RDZ2B | 2026-09-05 11:48:51 | 41.83621 | 8.88448 | 204° | 46km/h | 10512m | 4.6m/s | 0°C | 0% | 0hPa | 0V | 00:00:00 | 00:00:00 | 00:00:00 | |
| RDZBGO | 2026-09-05 11:48:34 | 41.83801 | 8.88585 | 198° | 51km/h | 10430m | 7.7m/s | 0°C | 0% | 0hPa | 0V | 00:00:00 | 00:00:00 | 00:00:00 | |
| RDZ2B | 2026-09-05 11:48:26 | 41.83880 | 8.88644 | 203° | 60km/h | 10380m | 5.2m/s | 0°C | 0% | 0hPa | 0V | 00:00:00 | 00:00:00 | 00:00:00 | |
| RDZBGO | 2026-09-05 11:48:14 | 41.84015 | 8.88718 | 222° | 47km/h | 10319m | 3.3m/s | 0°C | 0% | 0hPa | 0V | 00:00:00 | 00:00:00 | 00:00:00 | |
| RDZ2B | 2026-09-05 11:48:03 | 41.84114 | 8.88755 | 205° | 31km/h | 10270m | 3.2m/s | 0°C | 0% | 0hPa | 0V | 00:00:00 | 00:00:00 | 00:00:00 | |
| RDZBGO | 2026-09-05 11:47:54 | 41.84218 | 8.88789 | 192° | 51km/h | 10219m | 5.2m/s | 0°C | 0% | 0hPa | 0V | 00:00:00 | 00:00:00 | 00:00:00 | |
| RDZ2B | 2026-09-05 11:47:40 | 41.84310 | 8.88825 | 197° | 24km/h | 10146m | 1.4m/s | 0°C | 0% | 0hPa | 0V | 00:00:00 | 00:00:00 | 00:00:00 | |
| RDZBGO | 2026-09-05 11:47:34 | 41.84367 | 8.88850 | 197° | 22km/h | 10104m | 3.5m/s | 0°C | 0% | 0hPa | 0V | 00:00:00 | 00:00:00 | 00:00:00 | |
| RDZ2B | 2026-09-05 11:47:18 | 41.84476 | 8.88901 | 183° | 31km/h | 10029m | 6.2m/s | 0°C | 0% | 0hPa | 0V | 00:00:00 | 00:00:00 | 00:00:00 | |
| RDZBGO | 2026-09-05 11:47:12 | 41.84516 | 8.88913 | 208° | 35km/h | 10002m | 5.8m/s | 0°C | 0% | 0hPa | 0V | 00:00:00 | 00:00:00 | 00:00:00 | |
| RDZ2B | 2026-09-05 11:46:58 | 41.84597 | 8.88973 | 204° | 26km/h | 9940m | 5.3m/s | 0°C | 0% | 0hPa | 0V | 00:00:00 | 00:00:00 | 00:00:00 | |
| RDZBGO | 2026-09-05 11:46:52 | 41.84640 | 8.89002 | 230° | 33km/h | 9914m | 3.7m/s | 0°C | 0% | 0hPa | 0V | 00:00:00 | 00:00:00 | 00:00:00 | |
| RDZBGO | 2026-09-05 11:46:32 | 41.84742 | 8.89089 | 233° | 37km/h | 9817m | 7.0m/s | 0°C | 0% | 0hPa | 0V | 00:00:00 | 00:00:00 | 00:00:00 | |
| RDZ2B | 2026-09-05 11:46:29 | 41.84760 | 8.89102 | 179° | 31km/h | 9801m | 6.5m/s | 0°C | 0% | 0hPa | 0V | 00:00:00 | 00:00:00 | 00:00:00 | |
| RDZBGO | 2026-09-05 11:46:11 | 41.84869 | 8.89171 | 206° | 22km/h | 9706m | 5.7m/s | 0°C | 0% | 0hPa | 0V | 00:00:00 | 00:00:00 | 00:00:00 | |
| RDZ2B | 2026-09-05 11:46:08 | 41.84884 | 8.89175 | 173° | 20km/h | 9691m | 6.6m/s | 0°C | 0% | 0hPa | 0V | 00:00:00 | 00:00:00 | 00:00:00 | |
| RDZBGO | 2026-09-05 11:45:51 | 41.85024 | 8.89225 | 185° | 40km/h | 9596m | 7.1m/s | 0°C | 0% | 0hPa | 0V | 00:00:00 | 00:00:00 | 00:00:00 | |
| RDZ2B | 2026-09-05 11:45:44 | 41.85080 | 8.89258 | 176° | 35km/h | 9552m | 4.1m/s | 0°C | 0% | 0hPa | 0V | 00:00:00 | 00:00:00 | 00:00:00 | |
| RDZBGO | 2026-09-05 11:45:30 | 41.85211 | 8.89308 | 212° | 47km/h | 9485m | 3.8m/s | 0°C | 0% | 0hPa | 0V | 00:00:00 | 00:00:00 | 00:00:00 | |
| RDZBGO | 2026-09-05 11:45:09 | 41.85391 | 8.89374 | 217° | 29km/h | 9380m | 6.4m/s | 0°C | 0% | 0hPa | 0V | 00:00:00 | 00:00:00 | 00:00:00 | |
| RDZ2B | 2026-09-05 11:44:53 | 41.85498 | 8.89398 | 194° | 31km/h | 9294m | 3.7m/s | 0°C | 0% | 0hPa | 0V | 00:00:00 | 00:00:00 | 00:00:00 | |
| RDZBGO | 2026-09-05 11:44:48 | 41.85541 | 8.89400 | 218° | 27km/h | 9272m | 4.8m/s | 0°C | 0% | 0hPa | 0V | 00:00:00 | 00:00:00 | 00:00:00 | |
| RDZ2B | 2026-09-05 11:44:32 | 41.85644 | 8.89429 | 172° | 33km/h | 9205m | 4.7m/s | 0°C | 0% | 0hPa | 0V | 00:00:00 | 00:00:00 | 00:00:00 | |
| RDZBGO | 2026-09-05 11:44:28 | 41.85677 | 8.89425 | 181° | 26km/h | 9188m | 5.7m/s | 0°C | 0% | 0hPa | 0V | 00:00:00 | 00:00:00 | 00:00:00 | |
| RDZ2B | 2026-09-05 11:44:11 | 41.85767 | 8.89451 | 236° | 27km/h | 9096m | 2.9m/s | 0°C | 0% | 0hPa | 0V | 00:00:00 | 00:00:00 | 00:00:00 | |
| RDZBGO | 2026-09-05 11:44:07 | 41.85787 | 8.89461 | 173° | 22km/h | 9077m | 6.0m/s | 0°C | 0% | 0hPa | 0V | 00:00:00 | 00:00:00 | 00:00:00 | |
| RDZ2B | 2026-09-05 11:43:48 | 41.85889 | 8.89492 | 150° | 27km/h | 8989m | 3.8m/s | 0°C | 0% | 0hPa | 0V | 00:00:00 | 00:00:00 | 00:00:00 | |
| RDZBGO | 2026-09-05 11:43:46 | 41.85903 | 8.89487 | 192° | 31km/h | 8982m | 3.9m/s | 0°C | 0% | 0hPa | 0V | 00:00:00 | 00:00:00 | 00:00:00 | |
| RDZBGO | 2026-09-05 11:43:25 | 41.85990 | 8.89501 | 122° | 11km/h | 8879m | 6.7m/s | 0°C | 0% | 0hPa | 0V | 00:00:00 | 00:00:00 | 00:00:00 | |
| RDZ2B | 2026-09-05 11:43:16 | 41.86025 | 8.89486 | 145° | 16km/h | 8829m | 6.9m/s | 0°C | 0% | 0hPa | 0V | 00:00:00 | 00:00:00 | 00:00:00 | |
| RDZBGO | 2026-09-05 11:43:07 | 41.86078 | 8.89465 | 85° | 7km/h | 8772m | 6.0m/s | 0°C | 0% | 0hPa | 0V | 00:00:00 | 00:00:00 | 00:00:00 | |
| RDZBGO | 2026-09-05 11:42:45 | 41.86154 | 8.89424 | 128° | 24km/h | 8661m | 5.8m/s | 0°C | 0% | 0hPa | 0V | 00:00:00 | 00:00:00 | 00:00:00 | |
| RDZ2B | 2026-09-05 11:42:41 | 41.86162 | 8.89420 | 228° | 11km/h | 8636m | 5.6m/s | 0°C | 0% | 0hPa | 0V | 00:00:00 | 00:00:00 | 00:00:00 | |
| RDZBGO | 2026-09-05 11:42:23 | 41.86234 | 8.89408 | 198° | 15km/h | 8541m | 5.2m/s | 0°C | 0% | 0hPa | 0V | 00:00:00 | 00:00:00 | 00:00:00 | |
| RDZ2B | 2026-09-05 11:42:13 | 41.86264 | 8.89393 | 187° | 18km/h | 8482m | 4.7m/s | 0°C | 0% | 0hPa | 0V | 00:00:00 | 00:00:00 | 00:00:00 | |
| RDZBGO | 2026-09-05 11:42:03 | 41.86309 | 8.89367 | 153° | 31km/h | 8435m | 3.5m/s | 0°C | 0% | 0hPa | 0V | 00:00:00 | 00:00:00 | 00:00:00 | |
| RDZ2B | 2026-09-05 11:41:48 | 41.86377 | 8.89324 | 160° | 5km/h | 8355m | 4.3m/s | 0°C | 0% | 0hPa | 0V | 00:00:00 | 00:00:00 | 00:00:00 | |
| RDZBGO | 2026-09-05 11:41:43 | 41.86404 | 8.89308 | 180° | 31km/h | 8333m | 3.3m/s | 0°C | 0% | 0hPa | 0V | 00:00:00 | 00:00:00 | 00:00:00 | |
| RDZBGO | 2026-09-05 11:41:22 | 41.86529 | 8.89222 | 165° | 33km/h | 8255m | 4.3m/s | 0°C | 0% | 0hPa | 0V | 00:00:00 | 00:00:00 | 00:00:00 | |
| RDZ2B | 2026-09-05 11:41:09 | 41.86621 | 8.89156 | 149° | 29km/h | 8207m | 4.7m/s | 0°C | 0% | 0hPa | 0V | 00:00:00 | 00:00:00 | 00:00:00 | |
| RDZBGO | 2026-09-05 11:41:02 | 41.86669 | 8.89122 | 166° | 24km/h | 8180m | 3.2m/s | 0°C | 0% | 0hPa | 0V | 00:00:00 | 00:00:00 | 00:00:00 | |
| RDZBGO | 2026-09-05 11:40:41 | 41.86832 | 8.89020 | 158° | 29km/h | 8085m | 5.2m/s | 0°C | 0% | 0hPa | 0V | 00:00:00 | 00:00:00 | 00:00:00 | |
| RDZ2B | 2026-09-05 11:40:30 | 41.86917 | 8.88957 | 166° | 44km/h | 8045m | 2.1m/s | 0°C | 0% | 0hPa | 0V | 00:00:00 | 00:00:00 | 00:00:00 | |
| RDZBGO | 2026-09-05 11:40:20 | 41.87008 | 8.88903 | 156° | 38km/h | 8007m | 8.2m/s | 0°C | 0% | 0hPa | 0V | 00:00:00 | 00:00:00 | 00:00:00 | |
| RDZBGO | 2026-09-05 11:40:00 | 41.87173 | 8.88784 | 147° | 42km/h | 7882m | 5.8m/s | 0°C | 0% | 0hPa | 0V | 00:00:00 | 00:00:00 | 00:00:00 | |
| RDZ2B | 2026-09-05 11:39:57 | 41.87188 | 8.88762 | 116° | 22km/h | 7866m | 6.5m/s | 0°C | 0% | 0hPa | 0V | 00:00:00 | 00:00:00 | 00:00:00 | |
| RDZBGO | 2026-09-05 11:39:40 | 41.87315 | 8.88664 | 152° | 42km/h | 7786m | 6.6m/s | 0°C | 0% | 0hPa | 0V | 00:00:00 | 00:00:00 | 00:00:00 | |
| RDZ2B | 2026-09-05 11:39:31 | 41.87363 | 8.88596 | 141° | 40km/h | 7731m | 4.8m/s | 0°C | 0% | 0hPa | 0V | 00:00:00 | 00:00:00 | 00:00:00 | |
| RDZBGO | 2026-09-05 11:39:19 | 41.87439 | 8.88505 | 141° | 20km/h | 7663m | 5.0m/s | 0°C | 0% | 0hPa | 0V | 00:00:00 | 00:00:00 | 00:00:00 | |
| RDZ2B | 2026-09-05 11:39:09 | 41.87513 | 8.88427 | 145° | 37km/h | 7610m | 5.0m/s | 0°C | 0% | 0hPa | 0V | 00:00:00 | 00:00:00 | 00:00:00 | |
| RDZBGO | 2026-09-05 11:38:59 | 41.87591 | 8.88360 | 134° | 46km/h | 7565m | 4.0m/s | 0°C | 0% | 0hPa | 0V | 00:00:00 | 00:00:00 | 00:00:00 | |
| RDZ2B | 2026-09-05 11:38:46 | 41.87679 | 8.88297 | 160° | 26km/h | 7501m | 5.1m/s | 0°C | 0% | 0hPa | 0V | 00:00:00 | 00:00:00 | 00:00:00 | |
| RDZBGO | 2026-09-05 11:38:39 | 41.87722 | 8.88262 | 170° | 42km/h | 7460m | 5.7m/s | 0°C | 0% | 0hPa | 0V | 00:00:00 | 00:00:00 | 00:00:00 | |
| RDZ2B | 2026-09-05 11:38:24 | 41.87805 | 8.88180 | 140° | 47km/h | 7388m | 5.0m/s | 0°C | 0% | 0hPa | 0V | 00:00:00 | 00:00:00 | 00:00:00 | |
| RDZBGO | 2026-09-05 11:38:18 | 41.87838 | 8.88138 | 165° | 33km/h | 7359m | 3.3m/s | 0°C | 0% | 0hPa | 0V | 00:00:00 | 00:00:00 | 00:00:00 | |
| RDZBGO | 2026-09-05 11:37:57 | 41.87952 | 8.87964 | 135° | 40km/h | 7231m | 5.9m/s | 0°C | 0% | 0hPa | 0V | 00:00:00 | 00:00:00 | 00:00:00 | |
| RDZBGO | 2026-09-05 11:37:36 | 41.88050 | 8.87797 | 148° | 22km/h | 7129m | 3.4m/s | 0°C | 0% | 0hPa | 0V | 00:00:00 | 00:00:00 | 00:00:00 | |
| RDZBGO | 2026-09-05 11:37:16 | 41.88180 | 8.87622 | 148° | 40km/h | 7024m | 5.7m/s | 0°C | 0% | 0hPa | 0V | 00:00:00 | 00:00:00 | 00:00:00 | |
| RDZBGO | 2026-09-05 11:36:54 | 41.88304 | 8.87422 | 110° | 37km/h | 6914m | 4.9m/s | 0°C | 0% | 0hPa | 0V | 00:00:00 | 00:00:00 | 00:00:00 | |
| RDZBGO | 2026-09-05 11:36:24 | 41.88473 | 8.87112 | 142° | 42km/h | 6739m | 3.8m/s | 0°C | 0% | 0hPa | 0V | 00:00:00 | 00:00:00 | 00:00:00 | |
| RDZBGO | 2026-09-05 11:36:02 | 41.88569 | 8.86918 | 113° | 27km/h | 6621m | 4.8m/s | 0°C | 0% | 0hPa | 0V | 00:00:00 | 00:00:00 | 00:00:00 | |
| RDZBGO | 2026-09-05 11:35:41 | 41.88644 | 8.86719 | 136° | 13km/h | 6508m | 6.3m/s | 0°C | 0% | 0hPa | 0V | 00:00:00 | 00:00:00 | 00:00:00 | |
| RDZBGO | 2026-09-05 11:35:19 | 41.88717 | 8.86544 | 109° | 15km/h | 6394m | 8.0m/s | 0°C | 0% | 0hPa | 0V | 00:00:00 | 00:00:00 | 00:00:00 | |
| RDZBGO | 2026-09-05 11:34:59 | 41.88790 | 8.86358 | 82° | 26km/h | 6277m | 4.4m/s | 0°C | 0% | 0hPa | 0V | 00:00:00 | 00:00:00 | 00:00:00 |